Data for 09/26/2009

Time Sea-Level Adjusted Pressure Absolute Pressure Temperature Relative Humidity Dew Point Precipitation   
(mb) (inHg) (mb) (inHg) (C) (F) (%) (C) (F) (mm) (in)
00:01 1024 30.24 853 25.19 9.8 49.6 57 1.7 35.1 10.11 0.398
00:02 1024 30.24 853 25.19 9.7 49.5 57 1.7 35.1 10.11 0.398
00:03 1024 30.24 853 25.19 9.7 49.4 57 1.7 35 10.04 0.395
00:04 1024 30.24 853 25.19 9.6 49.3 58 1.7 35.1 9.97 0.393
00:05 1024 30.24 853 25.19 9.5 49.1 58 1.8 35.2 9.87 0.389
00:06 1024 30.24 853 25.19 9.3 48.8 59 1.8 35.2 9.73 0.383
00:07 1024 30.24 853 25.19 9.1 48.5 60 1.8 35.3 9.57 0.377
00:08 1024 30.24 853 25.19 9 48.3 60 1.7 35 9.45 0.372
00:09 1024 30.24 853 25.19 9.1 48.4 60 1.7 35 9.49 0.374
00:10 1024 30.24 853 25.19 9.2 48.6 59 1.5 34.8 9.6 0.378
00:11 1024 30.24 853 25.19 9.5 49.1 57 1.4 34.6 9.85 0.388
00:12 1023 30.21 853 25.19 9.8 49.7 56 1.5 34.7 10.19 0.401
00:13 1024 30.24 853 25.19 10.1 50.1 55 1.5 34.7 10.38 0.409
00:14 1023 30.21 853 25.19 10.1 50.2 55 1.5 34.6 10.49 0.413
00:15 1023 30.21 853 25.19 10.2 50.3 55 1.6 34.9 10.51 0.414
00:16 1023 30.21 853 25.19 10 50 57 1.8 35.3 10.36 0.408
00:17 1023 30.21 853 25.19 9.7 49.4 57 1.7 35 10.12 0.398
00:18 1023 30.21 853 25.19 9.6 49.3 57 1.5 34.7 9.99 0.393
00:19 1023 30.21 853 25.19 9.7 49.4 57 1.6 34.8 10.05 0.396
00:20 1023 30.21 853 25.19 9.7 49.4 57 1.6 34.9 9.99 0.393
00:21 1023 30.21 853 25.19 9.6 49.3 57 1.6 34.8 9.9 0.39
00:22 1023 30.21 853 25.19 9.5 49.2 57 1.5 34.8 9.93 0.391
00:23 1023 30.21 853 25.19 9.6 49.2 57 1.5 34.7 9.93 0.391
00:24 1023 30.21 853 25.19 9.5 49.2 58 1.7 35 9.86 0.388
00:25 1023 30.21 853 25.19 9.4 48.9 59 1.8 35.3 9.76 0.384
00:26 1023 30.21 853 25.19 9.2 48.6 60 1.8 35.2 9.64 0.38
00:27 1023 30.21 853 25.19 9.2 48.5 60 1.8 35.2 9.52 0.375
00:28 1023 30.21 853 25.19 9.1 48.4 59 1.5 34.7 9.5 0.374
00:29 1023 30.21 853 25.19 9.3 48.8 58 1.5 34.8 9.66 0.38
00:30 1023 30.21 853 25.19 9.5 49 58 1.8 35.2 9.8 0.386
00:31 1023 30.21 853 25.19 9.5 49 58 1.7 35.1 9.84 0.387
00:32 1023 30.21 853 25.19 9.6 49.3 57 1.5 34.8 9.93 0.391
00:33 1023 30.21 853 25.19 9.9 49.7 55 1.4 34.5 10.2 0.402
00:34 1024 30.24 853 25.19 10.1 50.3 55 1.4 34.6 10.45 0.411
00:35 1024 30.24 853 25.19 10.2 50.4 55 1.6 34.9 10.53 0.415
00:36 1024 30.24 853 25.19 10.1 50.2 56 1.6 35 10.44 0.411
00:37 1024 30.24 853 25.19 9.9 49.9 55 1.4 34.5 10.31 0.406
00:38 1024 30.24 853 25.19 9.9 49.8 57 1.7 35.1 10.2 0.402
00:39 1024 30.24 853 25.19 9.6 49.2 58 1.7 35 9.95 0.392
00:40 1024 30.24 853 25.19 9.4 48.8 58 1.5 34.7 9.72 0.383
00:41 1024 30.24 853 25.19 9.3 48.7 57 1.3 34.4 9.6 0.378
00:42 1023 30.21 853 25.19 9.3 48.7 57 1.4 34.4 9.64 0.38
00:43 1023 30.21 853 25.19 9.4 48.8 58 1.4 34.6 9.69 0.381
00:44 1023 30.21 853 25.19 9.3 48.8 58 1.5 34.7 9.68 0.381
00:45 1023 30.21 853 25.19 9.2 48.6 59 1.6 34.8 9.6 0.378
00:46 1023 30.21 853 25.19 9.2 48.5 59 1.7 35 9.5 0.374
00:47 1023 30.21 853 25.19 9 48.2 60 1.7 35.1 9.36 0.369
00:48 1023 30.21 853 25.19 8.8 47.9 61 1.7 35.1 9.21 0.363
00:49 1023 30.21 853 25.19 8.6 47.5 62 1.8 35.2 9.01 0.355
00:50 1023 30.21 853 25.19 8.4 47 63 1.7 35.1 8.76 0.345
00:51 1023 30.21 853 25.19 8.1 46.6 63 1.5 34.8 8.53 0.336
00:52 1023 30.21 853 25.19 8 46.5 63 1.5 34.7 8.42 0.331
00:53 1023 30.21 853 25.19 8 46.4 63 1.4 34.6 8.32 0.328
00:54 1023 30.21 853 25.19 7.9 46.3 63 1.4 34.6 8.29 0.326
00:55 1023 30.21 853 25.19 8 46.4 63 1.4 34.6 8.3 0.327
00:56 1023 30.21 853 25.19 7.9 46.3 64 1.5 34.7 8.29 0.326
00:57 1023 30.21 853 25.19 7.9 46.1 64 1.4 34.6 8.22 0.324
00:58 1023 30.21 853 25.19 8 46.4 63 1.4 34.5 8.24 0.324
00:59 1023 30.21 853 25.19 8.1 46.6 63 1.4 34.6 8.36 0.329
01:00 1023 30.21 853 25.19 8.2 46.7 63 1.5 34.6 8.39 0.33
01:01 1023 30.21 853 25.19 8.1 46.5 63 1.5 34.7 8.38 0.33
01:02 1023 30.21 853 25.19 8 46.4 64 1.5 34.8 8.29 0.326
01:03 1023 30.21 853 25.19 7.9 46.2 64 1.6 34.8 8.19 0.322
01:04 1023 30.21 853 25.19 7.7 45.9 65 1.5 34.7 8.08 0.318
01:05 1023 30.21 853 25.19 7.7 45.9 64 1.3 34.3 8.07 0.318
01:06 1023 30.21 853 25.19 7.9 46.2 62 1.1 33.9 8.25 0.325
01:07 1023 30.21 853 25.19 8.2 46.8 61 1.1 33.9 8.48 0.334
01:08 1023 30.21 853 25.19 8.4 47.2 60 1.2 34.1 8.67 0.341
01:09 1023 30.21 853 25.19 8.6 47.4 60 1.2 34.2 8.82 0.347
01:10 1023 30.21 853 25.19 8.7 47.6 59 1.2 34.2 8.94 0.352
01:11 1023 30.21 853 25.19 8.7 47.7 59 1.3 34.3 8.96 0.353
01:12 1023 30.21 853 25.19 8.7 47.6 60 1.3 34.3 8.9 0.35
01:13 1023 30.21 853 25.19 8.5 47.3 60 1.3 34.3 8.84 0.348
01:14 1023 30.21 853 25.19 8.5 47.3 60 1.2 34.2 8.81 0.347
01:15 1023 30.21 853 25.19 8.5 47.4 60 1.3 34.3 8.83 0.348
01:16 1023 30.21 853 25.19 8.6 47.5 60 1.4 34.5 8.89 0.35
01:17 1023 30.21 852 25.16 8.7 47.6 60 1.5 34.6 8.94 0.352
01:18 1023 30.21 852 25.16 8.7 47.6 60 1.5 34.6 8.98 0.354
01:19 1023 30.21 852 25.16 8.7 47.6 61 1.5 34.7 9.03 0.356
01:20 1023 30.21 852 25.16 8.7 47.6 60 1.4 34.6 9 0.354
01:21 1023 30.21 852 25.16 8.6 47.6 60 1.4 34.4 8.97 0.353
01:22 1023 30.21 852 25.16 8.6 47.5 60 1.3 34.3 8.95 0.352
01:23 1023 30.21 852 25.16 8.6 47.5 60 1.3 34.4 8.9 0.35
01:24 1023 30.21 852 25.16 8.5 47.4 60 1.3 34.4 8.84 0.348
01:25 1023 30.21 852 25.16 8.5 47.2 61 1.4 34.5 8.79 0.346
01:26 1023 30.21 852 25.16 8.4 47.1 61 1.3 34.4 8.77 0.345
01:27 1023 30.21 852 25.16 8.5 47.3 60 1.3 34.3 8.85 0.348
01:28 1023 30.21 852 25.16 8.7 47.6 60 1.3 34.3 8.97 0.353
01:29 1023 30.21 852 25.16 8.8 47.9 59 1.4 34.5 9.16 0.361
01:30 1023 30.21 852 25.16 8.9 48 59 1.4 34.4 9.17 0.361
01:31 1023 30.21 852 25.16 8.9 48 59 1.3 34.4 9.21 0.363
01:32 1023 30.21 852 25.16 8.9 48 59 1.4 34.6 9.19 0.362
01:33 1023 30.21 852 25.16 8.8 47.8 60 1.5 34.7 9.09 0.358
01:34 1023 30.21 852 25.16 8.7 47.6 60 1.4 34.6 9.02 0.355
01:35 1023 30.21 852 25.16 8.6 47.5 61 1.5 34.6 8.93 0.352
01:36 1023 30.21 852 25.16 8.6 47.5 61 1.5 34.6 8.89 0.35
01:37 1023 30.21 852 25.16 8.6 47.4 61 1.5 34.7 8.86 0.349
01:38 1023 30.21 852 25.16 8.5 47.2 61 1.4 34.5 8.75 0.344
01:39 1023 30.21 852 25.16 8.5 47.4 60 1.3 34.3 8.78 0.346
01:40 1023 30.21 852 25.16 8.8 47.8 59 1.1 34 9 0.354
01:41 1023 30.21 852 25.16 9.1 48.4 58 1.3 34.4 9.3 0.366
01:42 1023 30.21 852 25.16 9.3 48.8 57 1.2 34.2 9.52 0.375
01:43 1023 30.21 852 25.16 9.5 49.1 57 1.4 34.5 9.72 0.383
01:44 1023 30.21 852 25.16 9.5 49.2 57 1.4 34.4 9.76 0.384
01:45 1023 30.21 852 25.16 9.6 49.2 56 1.3 34.4 9.84 0.387
01:46 1023 30.21 852 25.16 9.7 49.4 56 1.4 34.5 9.92 0.391
01:47 1023 30.21 852 25.16 9.5 49.2 58 1.7 35 9.83 0.387
01:48 1023 30.21 852 25.16 9.2 48.5 60 1.7 35.1 9.47 0.373
01:49 1023 30.21 852 25.16 8.6 47.5 62 1.8 35.2 8.96 0.353
01:50 1023 30.21 852 25.16 8.1 46.6 64 1.7 35 8.45 0.333
01:51 1023 30.21 852 25.16 7.7 45.9 65 1.6 34.9 8.14 0.32
01:52 1023 30.21 852 25.16 7.5 45.5 66 1.6 34.8 7.86 0.309
01:53 1023 30.21 852 25.16 7.3 45.2 67 1.5 34.7 7.64 0.301
01:54 1023 30.21 852 25.16 7.3 45.2 65 1.3 34.3 7.63 0.3
01:55 1023 30.21 852 25.16 7.7 45.8 64 1.2 34.2 7.88 0.31
01:56 1023 30.21 852 25.16 8.1 46.5 62 1.1 34.1 8.2 0.323
01:57 1023 30.21 852 25.16 8.5 47.2 60 1.2 34.1 8.52 0.335
01:58 1023 30.21 852 25.16 8.7 47.7 58 1 33.8 8.86 0.349
01:59 1023 30.21 852 25.16 9.1 48.4 57 1.1 34 9.17 0.361
02:00 1023 30.21 852 25.16 9.3 48.7 57 1.1 34 9.35 0.368
02:01 1023 30.21 852 25.16 9.3 48.7 57 1.3 34.3 9.49 0.374
02:02 1023 30.21 852 25.16 9.2 48.5 58 1.3 34.4 9.4 0.37
02:03 1023 30.21 852 25.16 8.9 48 59 1.3 34.4 9.24 0.364
02:04 1023 30.21 852 25.16 8.7 47.7 60 1.3 34.4 9.09 0.358
02:05 1023 30.21 852 25.16 8.6 47.5 60 1.3 34.4 8.99 0.354
02:06 1023 30.21 852 25.16 8.5 47.3 61 1.4 34.4 8.87 0.349
02:07 1023 30.21 852 25.16 8.5 47.3 61 1.4 34.5 8.85 0.348
02:08 1023 30.21 852 25.16 8.5 47.3 61 1.5 34.7 8.81 0.347
02:09 1023 30.21 852 25.16 8.5 47.2 61 1.5 34.6 8.77 0.345
02:10 1023 30.21 852 25.16 8.4 47.1 62 1.5 34.7 8.71 0.343
02:11 1023 30.21 852 25.16 8.3 47 62 1.5 34.8 8.68 0.342
02:12 1023 30.21 852 25.16 8.2 46.8 63 1.5 34.7 8.58 0.338
02:13 1023 30.21 852 25.16 8.2 46.7 63 1.5 34.8 8.53 0.336
02:14 1023 30.21 852 25.16 8.1 46.6 63 1.5 34.8 8.48 0.334
02:15 1023 30.21 852 25.16 8 46.5 64 1.6 34.8 8.38 0.33
02:16 1023 30.21 852 25.16 7.9 46.2 64 1.5 34.8 8.22 0.324
02:17 1023 30.21 852 25.16 7.7 45.8 65 1.5 34.6 8.13 0.32
02:18 1023 30.21 852 25.16 7.6 45.7 65 1.5 34.7 7.95 0.313
02:19 1023 30.21 852 25.16 7.6 45.6 65 1.5 34.6 7.91 0.311
02:20 1023 30.21 852 25.16 7.6 45.6 65 1.4 34.5 7.87 0.31
02:21 1023 30.21 852 25.16 7.7 45.8 64 1.4 34.5 7.99 0.315
02:22 1023 30.21 852 25.16 7.8 46 64 1.4 34.6 8.01 0.315
02:23 1023 30.21 852 25.16 7.7 45.9 65 1.5 34.7 7.97 0.314
02:24 1023 30.21 852 25.16 7.6 45.7 65 1.5 34.7 7.92 0.312
02:25 1023 30.21 852 25.16 7.5 45.5 65 1.4 34.5 7.86 0.309
02:26 1023 30.21 852 25.16 7.6 45.6 65 1.4 34.6 7.9 0.311
02:27 1023 30.21 852 25.16 7.5 45.4 65 1.4 34.6 7.78 0.306
02:28 1023 30.21 852 25.16 7.4 45.4 66 1.5 34.7 7.79 0.307
02:29 1023 30.21 852 25.16 7.4 45.3 66 1.5 34.7 7.71 0.304
02:30 1023 30.21 852 25.16 7.3 45.1 66 1.4 34.6 7.62 0.3
02:31 1023 30.21 852 25.16 7.2 45 66 1.4 34.4 7.59 0.299
02:32 1023 30.21 852 25.16 7.3 45.1 66 1.4 34.5 7.67 0.302
02:33 1023 30.21 852 25.16 7.2 45 66 1.4 34.5 7.6 0.299
02:34 1023 30.21 852 25.16 7.1 44.7 68 1.5 34.7 7.44 0.293
02:35 1023 30.21 852 25.16 7 44.6 67 1.4 34.5 7.38 0.291
02:36 1023 30.21 852 25.16 7.1 44.8 67 1.4 34.4 7.46 0.294
02:37 1023 30.21 852 25.16 7.5 45.5 65 1.3 34.3 7.81 0.307
02:38 1023 30.21 852 25.16 7.9 46.3 63 1.4 34.5 8.14 0.32
02:39 1023 30.21 852 25.16 8.1 46.7 63 1.5 34.7 8.37 0.33
02:40 1023 30.21 852 25.16 8.2 46.7 64 1.7 35.1 8.43 0.332
02:41 1023 30.21 852 25.16 8 46.4 65 1.8 35.2 8.33 0.328
02:42 1023 30.21 852 25.16 7.8 46 65 1.6 34.8 8.17 0.322
02:43 1023 30.21 852 25.16 7.8 46.1 64 1.5 34.6 8.13 0.32
02:44 1023 30.21 852 25.16 7.8 46 64 1.5 34.7 8.07 0.318
02:45 1023 30.21 852 25.16 7.6 45.6 65 1.4 34.5 7.89 0.311
02:46 1023 30.21 852 25.16 7.4 45.3 65 1.3 34.3 7.72 0.304
02:47 1023 30.21 852 25.16 7.2 44.9 66 1.3 34.3 7.51 0.296
02:48 1023 30.21 852 25.16 7 44.5 67 1.3 34.3 7.29 0.287
02:49 1023 30.21 852 25.16 6.8 44.2 68 1.3 34.4 7.15 0.281
02:50 1023 30.21 852 25.16 6.6 43.9 68 1.2 34.2 6.957 0.274
02:51 1023 30.21 852 25.16 6.5 43.7 69 1.2 34.1 6.793 0.267
02:52 1023 30.21 852 25.16 6.2 43.2 70 1.1 33.9 6.595 0.26
02:53 1023 30.21 852 25.16 6 42.9 70 1 33.9 6.386 0.251
02:54 1023 30.21 852 25.16 5.8 42.5 71 0.9 33.7 6.194 0.244
02:55 1023 30.21 852 25.16 5.7 42.3 71 0.9 33.6 6.115 0.241
02:56 1023 30.21 852 25.16 5.6 42.2 72 0.9 33.6 6.047 0.238
02:57 1023 30.21 852 25.16 5.6 42.1 72 0.9 33.6 6.024 0.237
02:58 1023 30.21 852 25.16 5.7 42.3 71 0.9 33.6 6.086 0.24
02:59 1023 30.21 852 25.16 5.9 42.5 71 1 33.8 6.211 0.245
03:00 1023 30.21 852 25.16 6 42.9 70 1 33.7 6.397 0.252
03:01 1023 30.21 852 25.16 6.2 43.2 69 1 33.9 6.544 0.258
03:02 1023 30.21 852 25.16 6.2 43.1 70 1 33.9 6.556 0.258
03:03 1023 30.21 852 25.16 6.1 43 70 1.1 33.9 6.533 0.257
03:04 1023 30.21 852 25.16 6 42.9 70 1 33.8 6.431 0.253
03:05 1023 30.21 852 25.16 6.2 43.1 69 0.9 33.6 6.544 0.258
03:06 1023 30.21 852 25.16 6.1 43 70 1 33.8 6.482 0.255
03:07 1023 30.21 852 25.16 5.9 42.6 71 1 33.9 6.267 0.247
03:08 1023 30.21 852 25.16 5.7 42.3 72 1 33.8 6.126 0.241
03:09 1023 30.21 852 25.16 5.8 42.4 72 1.1 33.9 6.144 0.242
03:10 1023 30.21 852 25.16 6 42.8 70 1 33.8 6.388 0.251
03:11 1023 30.21 852 25.16 6.2 43.1 70 1.1 34 6.546 0.258
03:12 1023 30.21 852 25.16 6.2 43.2 70 1.2 34.1 6.552 0.258
03:13 1023 30.21 852 25.16 6 42.9 71 1.2 34.2 6.399 0.252
03:14 1023 30.21 852 25.16 5.9 42.7 71 1.2 34.1 6.365 0.251
03:15 1023 30.21 852 25.16 6 42.9 71 1.2 34.2 6.422 0.253
03:16 1023 30.21 852 25.16 6.1 42.9 71 1.3 34.3 6.462 0.254
03:17 1023 30.21 852 25.16 6.3 43.3 70 1.3 34.3 6.615 0.26
03:18 1023 30.21 852 25.16 6.3 43.4 70 1.3 34.4 6.65 0.262
03:19 1023 30.21 852 25.16 6.3 43.3 71 1.4 34.5 6.616 0.26
03:20 1023 30.21 852 25.16 6.3 43.3 71 1.3 34.4 6.65 0.262
03:21 1023 30.21 852 25.16 6.4 43.5 70 1.4 34.5 6.719 0.265
03:22 1023 30.21 852 25.16 6.5 43.8 70 1.4 34.6 6.854 0.27
03:23 1023 30.21 852 25.16 6.7 44.1 69 1.4 34.6 7.02 0.276
03:24 1023 30.21 852 25.16 6.9 44.4 68 1.4 34.5 7.23 0.285
03:25 1023 30.21 852 25.16 7 44.6 68 1.5 34.8 7.35 0.289
03:26 1023 30.21 852 25.16 7 44.6 68 1.5 34.7 7.41 0.292
03:27 1023 30.21 852 25.16 6.9 44.4 68 1.4 34.5 7.29 0.287
03:28 1023 30.21 852 25.16 6.7 44 69 1.4 34.6 7.05 0.278
03:29 1023 30.21 852 25.16 6.4 43.4 70 1.4 34.5 6.776 0.267
03:30 1023 30.21 852 25.16 6.1 43 71 1.3 34.4 6.53 0.257
03:31 1023 30.21 852 25.16 5.9 42.6 72 1.3 34.3 6.354 0.25
03:32 1023 30.21 852 25.16 5.8 42.4 73 1.3 34.3 6.213 0.245
03:33 1023 30.21 852 25.16 5.7 42.2 73 1.2 34.2 6.141 0.242
03:34 1023 30.21 852 25.16 5.6 42.1 73 1.2 34.2 6.056 0.238
03:35 1023 30.21 852 25.16 5.6 42.1 73 1.2 34.1 6.062 0.239
03:36 1023 30.21 852 25.16 5.6 42.1 73 1.2 34.2 6.018 0.237
03:37 1023 30.21 852 25.16 5.6 42.1 73 1.2 34.2 5.995 0.236
03:38 1023 30.21 852 25.16 5.6 42.1 73 1.2 34.1 5.978 0.235
03:39 1023 30.21 852 25.16 5.6 42.1 73 1.1 34 6.036 0.238
03:40 1023 30.21 852 25.16 5.7 42.3 72 1.2 34.1 6.098 0.24
03:41 1023 30.21 852 25.16 5.9 42.7 72 1.2 34.1 6.262 0.247
03:42 1023 30.21 852 25.16 6.1 42.9 71 1.2 34.1 6.399 0.252
03:43 1023 30.21 852 25.16 6.1 43 71 1.2 34.2 6.506 0.256
03:44 1023 30.21 852 25.16 6.1 43.1 71 1.3 34.3 6.461 0.254
03:45 1023 30.21 852 25.16 6.2 43.1 71 1.3 34.4 6.541 0.258
03:46 1023 30.21 852 25.16 6.3 43.3 71 1.4 34.5 6.597 0.26
03:47 1023 30.21 852 25.16 6.4 43.5 71 1.4 34.6 6.682 0.263
03:48 1023 30.21 852 25.16 6.4 43.5 70 1.4 34.5 6.751 0.266
03:49 1023 30.21 852 25.16 6.4 43.6 70 1.5 34.6 6.784 0.267
03:50 1023 30.21 852 25.16 6.5 43.6 70 1.5 34.7 6.779 0.267
03:51 1023 30.21 852 25.16 6.5 43.7 70 1.5 34.6 6.813 0.268
03:52 1023 30.21 852 25.16 6.5 43.6 70 1.5 34.6 6.853 0.27
03:53 1023 30.21 852 25.16 6.5 43.6 70 1.5 34.6 6.83 0.269
03:54 1023 30.21 852 25.16 6.5 43.7 70 1.4 34.6 6.864 0.27
03:55 1023 30.21 852 25.16 6.6 43.9 69 1.4 34.6 6.955 0.274
03:56 1023 30.21 852 25.16 6.6 44 69 1.4 34.4 7.04 0.277
03:57 1023 30.21 852 25.16 6.7 44.1 69 1.4 34.6 7.09 0.279
03:58 1023 30.21 852 25.16 6.7 44.1 69 1.5 34.7 7.07 0.278
03:59 1023 30.21 852 25.16 6.6 43.9 69 1.4 34.6 7.02 0.276
04:00 1023 30.21 852 25.16 6.4 43.5 70 1.4 34.5 6.82 0.269
04:01 1023 30.21 852 25.16 6 42.8 72 1.4 34.5 6.492 0.256
04:02 1023 30.21 852 25.16 5.7 42.2 74 1.4 34.5 6.175 0.243
04:03 1023 30.21 852 25.16 5.5 41.8 75 1.3 34.4 5.943 0.234
04:04 1023 30.21 852 25.16 5.3 41.5 76 1.4 34.6 5.705 0.225
04:05 1023 30.21 852 25.16 5.1 41.2 77 1.4 34.5 5.575 0.219
04:06 1023 30.21 852 25.16 5.1 41.1 77 1.4 34.5 5.507 0.217
04:07 1023 30.21 852 25.16 5.1 41.2 77 1.5 34.7 5.496 0.216
04:08 1023 30.21 852 25.16 5.1 41.2 77 1.5 34.6 5.558 0.219
04:09 1023 30.21 852 25.16 5.1 41.1 77 1.4 34.5 5.502 0.217
04:10 1023 30.21 852 25.16 5 41 78 1.4 34.5 5.411 0.213
04:11 1023 30.21 852 25.16 5 40.9 77 1.3 34.4 5.315 0.209
04:12 1023 30.21 852 25.16 4.9 40.8 77 1.3 34.3 5.276 0.208
04:13 1023 30.21 852 25.16 4.8 40.6 78 1.2 34.1 5.174 0.204
04:14 1023 30.21 852 25.16 4.7 40.5 78 1.1 34 5.117 0.201
04:15 1023 30.21 852 25.16 4.6 40.3 78 1 33.9 5.004 0.197
04:16 1023 30.21 852 25.16 4.5 40.1 78 1 33.8 4.885 0.192
04:17 1023 30.21 852 25.16 4.4 39.8 79 1.1 34 4.71 0.185
04:18 1023 30.21 852 25.16 4.3 39.8 79 1.1 34 4.693 0.185
04:19 1023 30.21 852 25.16 4.3 39.8 79 1 33.7 4.676 0.184
04:20 1023 30.21 852 25.16 4.2 39.6 80 1 33.8 4.569 0.18
04:21 1023 30.21 852 25.16 4.3 39.8 79 1.1 34 4.631 0.182
04:22 1023 30.21 852 25.16 4.5 40 78 1 33.8 4.761 0.187
04:23 1023 30.21 852 25.16 4.4 40 79 1 33.9 4.755 0.187
04:24 1023 30.21 852 25.16 4.5 40.1 78 1.1 33.9 4.795 0.189
04:25 1023 30.21 852 25.16 4.7 40.5 76 0.9 33.7 4.993 0.197
04:26 1023 30.21 852 25.16 5 41 75 1 33.8 5.157 0.203
04:27 1023 30.21 852 25.16 5.1 41.1 75 0.9 33.7 5.27 0.207
04:28 1023 30.21 852 25.16 5 41 75 0.9 33.7 5.282 0.208
04:29 1023 30.21 852 25.16 4.8 40.6 76 0.9 33.6 5.101 0.201
04:30 1023 30.21 852 25.16 4.5 40.1 77 0.9 33.6 4.942 0.195
04:31 1023 30.21 852 25.16 4.4 40 78 0.9 33.6 4.829 0.19
04:32 1023 30.21 852 25.16 4.4 39.9 78 0.9 33.6 4.772 0.188
04:33 1023 30.21 852 25.16 4.4 40 78 0.9 33.7 4.801 0.189
04:34 1023 30.21 852 25.16 4.5 40.1 77 0.9 33.6 4.806 0.189
04:35 1023 30.21 852 25.16 4.5 40 78 0.9 33.7 4.795 0.189
04:36 1023 30.21 852 25.16 4.4 40 78 0.9 33.6 4.756 0.187
04:37 1023 30.21 852 25.16 4.4 39.8 78 0.9 33.6 4.699 0.185
04:38 1023 30.21 852 25.16 4.3 39.7 79 0.9 33.5 4.637 0.183
04:39 1023 30.21 852 25.16 4.2 39.5 79 0.9 33.6 4.563 0.18
04:40 1023 30.21 852 25.16 4.2 39.6 80 1 33.8 4.597 0.181
04:41 1023 30.21 852 25.16 4.3 39.8 79 1 33.7 4.676 0.184
04:42 1023 30.21 852 25.16 4.4 40 78 1 33.8 4.71 0.185
04:43 1023 30.21 852 25.16 4.4 39.9 78 0.9 33.7 4.716 0.186
04:44 1023 30.21 852 25.16 4.4 39.9 78 1 33.7 4.761 0.187
04:45 1023 30.21 852 25.16 4.5 40 78 1 33.7 4.801 0.189
04:46 1023 30.21 852 25.16 4.5 40.1 78 0.9 33.6 4.806 0.189
04:47 1023 30.21 852 25.16 4.4 40 78 0.9 33.6 4.744 0.187
04:48 1023 30.21 852 25.16 4.3 39.8 78 0.9 33.6 4.682 0.184
04:49 1023 30.21 852 25.16 4.2 39.6 79 0.9 33.6 4.58 0.18
04:50 1023 30.21 852 25.16 4.2 39.6 79 0.9 33.7 4.552 0.179
04:51 1023 30.21 852 25.16 4.2 39.6 79 0.8 33.5 4.569 0.18
04:52 1023 30.21 852 25.16 4.2 39.5 79 0.8 33.4 4.524 0.178
04:53 1023 30.21 852 25.16 4 39.3 79 0.7 33.2 4.456 0.175
04:54 1023 30.21 852 25.16 3.8 38.9 80 0.7 33.2 4.292 0.169
04:55 1023 30.21 852 25.16 3.7 38.6 81 0.8 33.4 4.173 0.164
04:56 1023 30.21 852 25.16 3.7 38.6 82 0.9 33.6 4.145 0.163
04:57 1023 30.21 852 25.16 3.7 38.6 82 0.9 33.6 4.139 0.163
04:58 1023 30.21 852 25.16 3.8 38.8 83 1.1 34 4.224 0.166
04:59 1023 30.21 852 25.16 4 39.1 82 1.1 34 4.377 0.172
05:00 1023 30.21 852 25.16 4.1 39.5 81 1.1 34 4.49 0.177
05:01 1023 30.21 852 25.16 4.4 39.9 79 1.1 34 4.727 0.186
05:02 1022 30.18 852 25.16 4.6 40.4 78 1.2 34.2 4.965 0.195
05:03 1023 30.21 852 25.16 4.8 40.6 78 1.2 34.2 5.084 0.2
05:04 1023 30.21 852 25.16 4.8 40.6 78 1.3 34.3 5.05 0.199
05:05 1023 30.21 852 25.16 4.8 40.6 78 1.2 34.2 5.123 0.202
05:06 1023 30.21 852 25.16 4.8 40.7 77 1.2 34.1 5.106 0.201
05:07 1023 30.21 852 25.16 4.9 40.8 77 1.1 34 5.191 0.204
05:08 1023 30.21 852 25.16 5 41.1 76 1.1 34 5.35 0.211
05:09 1023 30.21 852 25.16 5.2 41.4 75 1.1 34.1 5.446 0.214
05:10 1023 30.21 852 25.16 5.3 41.5 75 1.2 34.1 5.508 0.217
05:11 1023 30.21 852 25.16 5.2 41.4 75 1.2 34.1 5.451 0.215
05:12 1023 30.21 852 25.16 5.2 41.3 75 1.1 34 5.463 0.215
05:13 1023 30.21 852 25.16 5.2 41.4 75 1.1 34 5.497 0.216
05:14 1022 30.18 852 25.16 5.3 41.5 75 1.1 34 5.536 0.218
05:15 1022 30.18 852 25.16 5.4 41.7 73 1 33.8 5.735 0.226
05:16 1023 30.21 852 25.16 5.5 42 73 1 33.9 5.838 0.23
05:17 1023 30.21 852 25.16 5.5 42 74 1.2 34.2 5.894 0.232
05:18 1023 30.21 852 25.16 5.7 42.2 74 1.3 34.4 5.98 0.235
05:19 1023 30.21 852 25.16 5.6 42.1 73 1.3 34.3 5.952 0.234
05:20 1023 30.21 852 25.16 5.8 42.5 72 1.2 34.2 6.099 0.24
05:21 1023 30.21 852 25.16 5.8 42.5 72 1.3 34.3 6.155 0.242
05:22 1023 30.21 852 25.16 5.8 42.4 73 1.3 34.3 6.138 0.242
05:23 1023 30.21 852 25.16 5.8 42.4 73 1.3 34.3 6.138 0.242
05:24 1023 30.21 852 25.16 5.8 42.5 72 1.2 34.2 6.162 0.243
05:25 1023 30.21 852 25.16 5.8 42.5 72 1.2 34.2 6.185 0.244
05:26 1023 30.21 852 25.16 6 42.7 71 1.2 34.2 6.275 0.247
05:27 1023 30.21 852 25.16 6 42.9 71 1.3 34.3 6.31 0.248
05:28 1023 30.21 852 25.16 6 42.9 71 1.2 34.2 6.372 0.251
05:29 1023 30.21 852 25.16 6.1 43 70 1.1 34 6.406 0.252
05:30 1023 30.21 852 25.16 6.2 43.2 70 1.1 34 6.492 0.256
05:31 1023 30.21 852 25.16 6.4 43.5 69 1.1 34 6.645 0.262
05:32 1023 30.21 852 25.16 6.3 43.4 70 1.2 34.2 6.639 0.261
05:33 1023 30.21 852 25.16 6.2 43.1 71 1.3 34.3 6.504 0.256
05:34 1023 30.21 852 25.16 5.9 42.7 72 1.2 34.2 6.34 0.25
05:35 1023 30.21 852 25.16 5.8 42.5 72 1.2 34.2 6.243 0.246
05:36 1023 30.21 852 25.16 5.8 42.4 74 1.5 34.7 6.135 0.242
05:37 1023 30.21 852 25.16 5.6 42.1 74 1.4 34.5 6.05 0.238
05:38 1023 30.21 852 25.16 5.5 41.9 75 1.4 34.6 5.886 0.232
05:39 1023 30.21 852 25.16 5.4 41.8 75 1.4 34.6 5.824 0.229
05:40 1023 30.21 852 25.16 5.3 41.5 76 1.4 34.6 5.722 0.225
05:41 1023 30.21 852 25.16 5.4 41.7 76 1.5 34.6 5.762 0.227
05:42 1023 30.21 852 25.16 5.7 42.2 74 1.4 34.5 6.012 0.237
05:43 1023 30.21 852 25.16 5.7 42.3 74 1.4 34.5 6.006 0.236
05:44 1023 30.21 852 25.16 5.7 42.2 74 1.4 34.5 6.04 0.238
05:45 1023 30.21 852 25.16 5.6 42 74 1.4 34.5 5.938 0.234
05:46 1023 30.21 852 25.16 5.5 41.9 75 1.3 34.4 5.87 0.231
05:47 1023 30.21 852 25.16 5.5 41.9 74 1.3 34.3 5.865 0.231
05:48 1023 30.21 852 25.16 5.3 41.6 74 1.2 34.1 5.758 0.227
05:49 1023 30.21 852 25.16 5.1 41.3 75 1.1 34.1 5.582 0.22
05:50 1023 30.21 852 25.16 5 41 77 1.3 34.3 5.418 0.213
05:51 1023 30.21 852 25.16 5 41.1 76 1.2 34.1 5.481 0.216
05:52 1023 30.21 852 25.16 5.2 41.3 75 1.1 34.1 5.515 0.217
05:53 1023 30.21 852 25.16 5.1 41.3 75 1.1 33.9 5.549 0.218
05:54 1023 30.21 852 25.16 5 41 76 1.1 34 5.407 0.213
05:55 1023 30.21 852 25.16 5.1 41.1 75 1 33.9 5.481 0.216
05:56 1023 30.21 852 25.16 5.1 41.2 74 0.9 33.7 5.492 0.216
05:57 1023 30.21 852 25.16 4.9 40.9 76 1 33.8 5.374 0.212
05:58 1023 30.21 852 25.16 5 40.9 76 1.1 34 5.362 0.211
05:59 1023 30.21 852 25.16 4.9 40.9 76 1.1 33.9 5.351 0.211
06:00 1023 30.21 852 25.16 4.9 40.8 77 1.1 34 5.351 0.211
06:01 1023 30.21 852 25.16 5 41 76 1.2 34.1 5.436 0.214
06:02 1023 30.21 852 25.16 5.1 41.3 76 1.2 34.2 5.555 0.219
06:03 1023 30.21 852 25.16 5.3 41.5 75 1.2 34.2 5.64 0.222
06:04 1023 30.21 852 25.16 5.5 41.9 74 1.3 34.3 5.804 0.229
06:05 1023 30.21 852 25.16 5.7 42.2 73 1.3 34.3 5.951 0.234
06:06 1023 30.21 852 25.16 5.8 42.4 73 1.3 34.3 6.138 0.242
06:07 1023 30.21 852 25.16 5.9 42.7 73 1.4 34.5 6.257 0.246
06:08 1023 30.21 852 25.16 6 42.8 72 1.4 34.6 6.336 0.249
06:09 1023 30.21 852 25.16 6 42.9 72 1.4 34.5 6.387 0.251
06:10 1023 30.21 852 25.16 6.1 43 72 1.4 34.5 6.455 0.254
06:11 1023 30.21 852 25.16 6.4 43.4 71 1.4 34.5 6.664 0.262
06:12 1023 30.21 852 25.16 6.6 43.8 70 1.5 34.6 6.868 0.27
06:13 1023 30.21 852 25.16 6.6 43.8 70 1.4 34.6 6.936 0.273
06:14 1023 30.21 852 25.16 6.6 43.8 70 1.5 34.7 6.936 0.273
06:15 1023 30.21 852 25.16 6.5 43.7 70 1.4 34.6 6.857 0.27
06:16 1023 30.21 852 25.16 6.5 43.7 70 1.4 34.5 6.828 0.269
06:17 1023 30.21 852 25.16 6.4 43.4 70 1.3 34.4 6.709 0.264
06:18 1023 30.21 852 25.16 6.1 43.1 71 1.3 34.4 6.534 0.257
06:19 1023 30.21 852 25.16 5.9 42.7 72 1.3 34.4 6.313 0.249
06:20 1023 30.21 852 25.16 5.7 42.3 73 1.2 34.2 6.155 0.242
06:21 1023 30.21 852 25.16 5.5 41.9 73 1.1 34 5.917 0.233
06:22 1023 30.21 852 25.16 5.2 41.3 74 0.9 33.7 5.578 0.22
06:23 1023 30.21 852 25.16 4.6 40.4 77 0.9 33.6 5.108 0.201
06:24 1023 30.21 852 25.16 4.3 39.7 78 0.9 33.6 4.808 0.189
06:25 1023 30.21 852 25.16 4.2 39.6 78 0.8 33.4 4.695 0.185
06:26 1023 30.21 852 25.16 4.1 39.3 79 0.8 33.5 4.554 0.179
06:27 1023 30.21 852 25.16 4.1 39.3 80 0.9 33.7 4.52 0.178
06:28 1023 30.21 852 25.16 4.4 39.9 78 0.9 33.6 4.695 0.185
06:29 1023 30.21 852 25.16 4.8 40.6 75 0.8 33.4 4.978 0.196
06:30 1023 30.21 852 25.16 5.1 41.1 73 0.7 33.3 5.204 0.205
06:31 1023 30.21 852 25.16 5.1 41.2 73 0.6 33 5.272 0.208
06:32 1023 30.21 852 25.16 5 41.1 73 0.6 33 5.21 0.205
06:33 1023 30.21 852 25.16 4.9 40.7 73 0.5 32.9 5.052 0.199
06:34 1023 30.21 852 25.16 4.7 40.4 75 0.6 33.1 4.854 0.191
06:35 1023 30.21 852 25.16 4.5 40 75 0.5 32.8 4.746 0.187
06:36 1023 30.21 852 25.16 4.3 39.7 76 0.4 32.7 4.537 0.179
06:37 1023 30.21 852 25.16 4.1 39.5 77 0.4 32.7 4.424 0.174
06:38 1023 30.21 853 25.19 4 39.2 77 0.3 32.5 4.401 0.173
06:39 1023 30.21 853 25.19 4 39.2 77 0.4 32.7 4.356 0.171
06:40 1023 30.21 853 25.19 4 39.2 78 0.5 32.9 4.429 0.174
06:41 1023 30.21 853 25.19 4.1 39.3 77 0.4 32.6 4.599 0.181
06:42 1023 30.21 853 25.19 4.2 39.6 76 0.3 32.6 4.741 0.187
06:43 1023 30.21 853 25.19 4.4 39.9 76 0.5 32.9 4.808 0.189
06:44 1023 30.21 853 25.19 4.6 40.4 76 0.7 33.3 4.978 0.196
06:45 1023 30.21 853 25.19 5.1 41.2 73 0.6 33.2 5.369 0.211
06:46 1023 30.21 853 25.19 5.6 42.1 70 0.5 32.8 5.833 0.23
06:47 1023 30.21 853 25.19 5.9 42.6 68 0.5 32.9 6.138 0.242
06:48 1023 30.21 853 25.19 5.8 42.4 69 0.5 33 6.059 0.239
06:49 1023 30.21 853 25.19 5.6 42.1 69 0.4 32.8 5.969 0.235
06:50 1023 30.21 853 25.19 5.6 42 70 0.5 33 5.84 0.23
06:51 1023 30.21 853 25.19 5.5 42 70 0.5 32.9 5.8 0.228
06:52 1023 30.21 853 25.19 5.4 41.7 71 0.6 33 5.67 0.223
06:53 1023 30.21 853 25.19 5.2 41.3 72 0.4 32.8 5.494 0.216
06:54 1023 30.21 853 25.19 5 41 72 0.4 32.6 5.347 0.211
06:55 1023 30.21 853 25.19 5 41 72 0.4 32.8 5.353 0.211
06:56 1023 30.21 853 25.19 5.2 41.4 71 0.3 32.6 5.528 0.218
06:57 1023 30.21 853 25.19 5.4 41.6 70 0.3 32.6 5.658 0.223
06:58 1023 30.21 853 25.19 5.3 41.5 70 0.3 32.5 5.551 0.219
06:59 1023 30.21 853 25.19 5.1 41.1 72 0.4 32.7 5.324 0.21
07:00 1023 30.21 853 25.19 4.9 40.8 72 0.2 32.4 5.177 0.204
07:01 1023 30.21 853 25.19 4.5 40.2 74 0.2 32.4 4.901 0.193
07:02 1023 30.21 853 25.19 4.3 39.7 75 0.3 32.6 4.652 0.183
07:03 1023 30.21 853 25.19 4.1 39.4 77 0.4 32.6 4.499 0.177
07:04 1023 30.21 853 25.19 4 39.2 78 0.4 32.8 4.358 0.172
07:05 1023 30.21 853 25.19 3.9 39 78 0.4 32.8 4.244 0.167
07:06 1023 30.21 853 25.19 3.8 38.9 79 0.4 32.8 4.216 0.166
07:07 1023 30.21 853 25.19 3.8 38.9 79 0.5 32.9 4.172 0.164
07:08 1023 30.21 853 25.19 3.9 39 78 0.4 32.8 4.291 0.169
07:09 1023 30.21 853 25.19 4.1 39.4 77 0.5 32.9 4.449 0.175
07:10 1023 30.21 853 25.19 4.3 39.8 76 0.5 33 4.665 0.184
07:11 1023 30.21 853 25.19 4.5 40 76 0.6 33.2 4.778 0.188
07:12 1023 30.21 853 25.19 4.5 40.1 76 0.7 33.3 4.869 0.192
07:13 1023 30.21 853 25.19 4.7 40.4 76 0.8 33.4 5.022 0.198
07:14 1023 30.21 853 25.19 4.8 40.7 75 0.9 33.6 5.175 0.204
07:15 1023 30.21 853 25.19 5.1 41.1 75 0.9 33.7 5.402 0.213
07:16 1023 30.21 853 25.19 5.3 41.5 74 1 33.7 5.651 0.222
07:17 1023 30.21 853 25.19 5.5 42 73 1 33.8 5.861 0.231
07:18 1023 30.21 853 25.19 5.8 42.5 72 1.1 34 6.081 0.239
07:19 1023 30.21 853 25.19 6.1 42.9 70 1.1 33.9 6.387 0.251
07:20 1023 30.21 853 25.19 6.3 43.4 69 1.1 34 6.614 0.26
07:21 1023 30.21 853 25.19 6.6 43.8 68 1.1 33.9 6.829 0.269
07:22 1023 30.21 853 25.19 6.8 44.2 67 1.2 34.1 7.05 0.278
07:23 1023 30.21 853 25.19 6.9 44.4 67 1.2 34.1 7.23 0.285
07:24 1023 30.21 853 25.19 7.1 44.7 66 1.2 34.1 7.36 0.29
07:25 1023 30.21 853 25.19 7.2 44.9 66 1.3 34.3 7.47 0.294
07:26 1023 30.21 853 25.19 7.2 44.9 65 1.1 34 7.5 0.295
07:27 1023 30.21 853 25.19 7.2 45 65 1.2 34.1 7.59 0.299
07:28 1023 30.21 853 25.19 7.3 45.2 65 1.3 34.3 7.62 0.3
07:29 1023 30.21 852 25.16 7.3 45.1 65 1.3 34.3 7.64 0.301
07:30 1023 30.21 853 25.19 7.3 45.1 66 1.3 34.3 7.62 0.3
07:31 1023 30.21 852 25.16 7.2 45 65 1.1 34.1 7.59 0.299
07:32 1023 30.21 852 25.16 7.3 45.2 65 1.2 34.2 7.64 0.301
07:33 1023 30.21 852 25.16 7.3 45.2 65 1.1 34 7.7 0.303
07:34 1023 30.21 852 25.16 7.4 45.4 64 1.1 34 7.78 0.306
07:35 1023 30.21 852 25.16 7.5 45.6 63 1 33.8 7.87 0.31
07:36 1023 30.21 852 25.16 7.7 45.9 63 1.1 33.9 8.03 0.316
07:37 1023 30.21 852 25.16 7.8 46.1 62 1.1 34 8.2 0.323
07:38 1023 30.21 852 25.16 8 46.4 62 1.1 34 8.34 0.328
07:39 1023 30.21 852 25.16 8.1 46.5 62 1.2 34.2 8.44 0.332
07:40 1023 30.21 852 25.16 8.1 46.6 61 1.1 34.1 8.52 0.335
07:41 1023 30.21 852 25.16 8.2 46.8 61 1.1 34 8.55 0.337
07:42 1023 30.21 852 25.16 8.3 46.9 60 1.1 33.9 8.66 0.341
07:43 1023 30.21 852 25.16 8.3 47 61 1.2 34.2 8.7 0.343
07:44 1023 30.21 852 25.16 8.4 47.1 61 1.3 34.3 8.75 0.344
07:45 1023 30.21 852 25.16 8.4 47.2 61 1.3 34.4 8.77 0.345
07:46 1023 30.21 852 25.16 8.4 47.1 61 1.4 34.5 8.84 0.348
07:47 1023 30.21 852 25.16 8.4 47.2 61 1.3 34.4 8.85 0.348
07:48 1023 30.21 852 25.16 8.5 47.3 61 1.5 34.8 8.91 0.351
07:49 1023 30.21 852 25.16 8.4 47.1 63 1.7 35.1 8.84 0.348
07:50 1023 30.21 852 25.16 8.3 46.9 63 1.6 34.9 8.78 0.346
07:51 1023 30.21 852 25.16 8.3 46.9 62 1.6 34.8 8.71 0.343
07:52 1023 30.21 852 25.16 8.3 46.9 63 1.6 34.9 8.66 0.341
07:53 1023 30.21 852 25.16 8.3 46.9 62 1.5 34.7 8.66 0.341
07:54 1023 30.21 852 25.16 8.4 47.1 62 1.5 34.7 8.72 0.343
07:55 1023 30.21 852 25.16 8.5 47.2 62 1.5 34.7 8.76 0.345
07:56 1023 30.21 852 25.16 8.5 47.4 62 1.6 34.9 8.88 0.35
07:57 1023 30.21 852 25.16 8.5 47.4 63 1.8 35.3 8.91 0.351
07:58 1023 30.21 852 25.16 8.4 47.2 63 1.8 35.2 8.81 0.347
07:59 1023 30.21 852 25.16 8.3 47 63 1.8 35.3 8.74 0.344
08:00 1023 30.21 852 25.16 8.2 46.8 64 1.9 35.4 8.63 0.34
08:01 1023 30.21 852 25.16 8.2 46.7 65 2.1 35.7 8.52 0.335
08:02 1023 30.21 852 25.16 8.1 46.5 65 2 35.6 8.44 0.332
08:03 1023 30.21 852 25.16 8.1 46.5 66 2.1 35.8 8.43 0.332
08:04 1023 30.21 852 25.16 8.1 46.6 66 2.2 35.9 8.43 0.332
08:05 1023 30.21 852 25.16 8.1 46.6 66 2.2 35.9 8.49 0.334
08:06 1023 30.21 852 25.16 8.2 46.7 65 2 35.6 8.49 0.334
08:07 1023 30.21 852 25.16 8.2 46.8 65 2.1 35.7 8.61 0.339
08:08 1023 30.21 852 25.16 8.4 47.2 64 2.1 35.7 8.76 0.345
08:09 1023 30.21 852 25.16 8.6 47.4 64 2.2 36 8.91 0.351
08:10 1023 30.21 852 25.16 8.7 47.7 63 2.1 35.8 9.07 0.357
08:11 1023 30.21 852 25.16 8.9 48 62 2.2 35.9 9.22 0.363
08:12 1023 30.21 852 25.16 9 48.3 62 2.2 35.9 9.38 0.369
08:13 1023 30.21 852 25.16 9.2 48.6 62 2.4 36.3 9.48 0.373
08:14 1023 30.21 852 25.16 9.3 48.7 62 2.3 36.2 9.6 0.378
08:15 1023 30.21 852 25.16 9.4 48.8 61 2.2 35.9 9.69 0.381
08:16 1023 30.21 852 25.16 9.5 49 60 2.2 35.9 9.75 0.384
08:17 1023 30.21 852 25.16 9.6 49.2 60 2.2 36 9.85 0.388
08:18 1023 30.21 852 25.16 9.7 49.4 60 2.3 36.2 9.96 0.392
08:19 1023 30.21 852 25.16 9.7 49.5 62 2.7 36.9 10.04 0.395
08:20 1023 30.21 852 25.16 9.7 49.4 64 3.2 37.7 10.09 0.397
08:21 1023 30.21 852 25.16 9.7 49.5 64 3.4 38 10.16 0.4
08:22 1023 30.21 852 25.16 9.8 49.6 65 3.5 38.2 10.23 0.403
08:23 1023 30.21 852 25.16 9.8 49.7 64 3.4 38.2 10.3 0.406
08:24 1023 30.21 852 25.16 9.9 49.9 62 3 37.5 10.41 0.41
08:25 1023 30.21 852 25.16 10.1 50.1 61 2.9 37.3 10.46 0.412
08:26 1023 30.21 852 25.16 10.2 50.3 60 2.8 37 10.61 0.418
08:27 1023 30.21 852 25.16 10.3 50.5 60 2.8 37 10.71 0.422
08:28 1023 30.21 852 25.16 10.3 50.6 61 3.2 37.7 10.84 0.427
08:29 1023 30.21 852 25.16 10.4 50.7 60 3.1 37.5 10.91 0.43
08:30 1023 30.21 852 25.16 10.5 50.9 61 3.3 38 10.96 0.431
08:31 1023 30.21 852 25.16 10.5 50.9 62 3.5 38.2 11 0.433
08:32 1023 30.21 852 25.16 10.6 51 61 3.5 38.3 11.09 0.437
08:33 1023 30.21 852 25.16 10.6 51.1 60 3.1 37.6 11.19 0.441
08:34 1023 30.21 852 25.16 10.7 51.3 59 3 37.4 11.26 0.443
08:35 1023 30.21 852 25.16 10.8 51.4 59 3.1 37.5 11.33 0.446
08:36 1023 30.21 852 25.16 10.9 51.7 58 3.1 37.6 11.45 0.451
08:37 1023 30.21 852 25.16 11 51.8 58 3 37.4 11.54 0.454
08:38 1023 30.21 852 25.16 11.2 52.1 58 3.1 37.6 11.62 0.457
08:39 1023 30.21 852 25.16 11.3 52.3 58 3.4 38.1 11.75 0.463
08:40 1023 30.21 852 25.16 11.4 52.5 57 3.3 37.9 11.93 0.47
08:41 1023 30.21 852 25.16 11.5 52.8 59 4 39.1 12.05 0.474
08:42 1023 30.21 852 25.16 11.7 53 59 4 39.1 12.2 0.48
08:43 1023 30.21 852 25.16 11.8 53.2 58 3.8 38.9 12.32 0.485
08:44 1023 30.21 852 25.16 11.9 53.4 57 3.7 38.7 12.45 0.49
08:45 1023 30.21 852 25.16 12.1 53.7 58 4.2 39.6 12.61 0.496
08:46 1023 30.21 852 25.16 12.2 54 58 4.3 39.8 12.76 0.502
08:47 1023 30.21 852 25.16 12.4 54.4 56 4.1 39.3 12.94 0.509
08:48 1023 30.21 852 25.16 12.6 54.6 57 4.3 39.7 13.1 0.516
08:49 1023 30.21 852 25.16 12.7 54.9 55 4 39.2 13.19 0.519
08:50 1023 30.21 852 25.16 12.9 55.2 54 3.8 38.9 13.32 0.524
08:51 1023 30.21 852 25.16 13 55.5 55 4.2 39.5 13.46 0.53
08:52 1023 30.21 852 25.16 13.2 55.7 54 4.1 39.5 13.59 0.535
08:53 1023 30.21 852 25.16 13.3 55.9 50 3.3 37.9 13.71 0.54
08:54 1023 30.21 852 25.16 13.4 56 50 3.2 37.8 13.79 0.543
08:55 1023 30.21 852 25.16 13.4 56.1 50 3.2 37.7 13.79 0.543
08:56 1023 30.21 852 25.16 13.4 56.1 50 3.2 37.8 13.77 0.542
08:57 1023 30.21 852 25.16 13.4 56.2 51 3.5 38.3 13.75 0.541
08:58 1023 30.21 852 25.16 13.5 56.2 48 2.8 37 13.79 0.543
08:59 1023 30.21 852 25.16 13.5 56.3 49 3.1 37.6 13.81 0.544
09:00 1023 30.21 852 25.16 13.6 56.4 50 3.5 38.3 13.9 0.547
09:01 1023 30.21 852 25.16 13.7 56.6 49 3.2 37.8 13.98 0.55
09:02 1023 30.21 852 25.16 13.8 56.8 48 3.2 37.7 14.08 0.554
09:03 1023 30.21 852 25.16 13.9 57 49 3.4 38 14.24 0.561
09:04 1023 30.21 852 25.16 14.1 57.3 47 2.9 37.3 14.42 0.568
09:05 1023 30.21 852 25.16 14.2 57.6 48 3.4 38.2 14.6 0.575
09:06 1023 30.21 852 25.16 14.3 57.8 46 3 37.4 14.74 0.58
09:07 1023 30.21 852 25.16 14.4 58 44 2.4 36.3 14.8 0.583
09:08 1023 30.21 852 25.16 14.5 58.1 48 3.7 38.7 14.98 0.59
09:09 1023 30.21 852 25.16 14.6 58.3 45 2.8 37.1 15.11 0.595
09:10 1023 30.21 852 25.16 14.7 58.5 45 3.1 37.5 15.14 0.596
09:11 1023 30.21 852 25.16 14.7 58.5 45 2.9 37.1 15.23 0.6
09:12 1023 30.21 852 25.16 14.8 58.7 47 3.8 38.9 15.3 0.602
09:13 1023 30.21 852 25.16 14.9 58.8 42 2.1 35.8 15.44 0.608
09:14 1023 30.21 852 25.16 15 59 46 3.7 38.6 15.51 0.611
09:15 1023 30.21 852 25.16 15.1 59.1 46 3.7 38.6 15.58 0.613
09:16 1023 30.21 852 25.16 15.1 59.2 45 3.4 38.1 15.62 0.615
09:17 1023 30.21 852 25.16 15.2 59.4 46 3.8 38.8 15.69 0.618
09:18 1023 30.21 852 25.16 15.3 59.5 44 3.3 38 15.82 0.623
09:19 1023 30.21 852 25.16 15.4 59.7 43 3.1 37.6 15.94 0.628
09:20 1023 30.21 852 25.16 15.5 59.9 42 2.6 36.7 16.06 0.632
09:21 1023 30.21 852 25.16 15.6 60.1 45 3.9 39 16.15 0.636
09:22 1023 30.21 852 25.16 15.8 60.4 44 3.8 38.8 16.32 0.643
09:23 1023 30.21 852 25.16 15.9 60.6 43 3.5 38.4 16.42 0.646
09:24 1023 30.21 852 25.16 16 60.8 45 4.1 39.4 16.53 0.651
09:25 1023 30.21 852 25.16 16.1 61.1 46 4.7 40.4 16.71 0.658
09:26 1023 30.21 852 25.16 16.4 61.4 42 3.4 38 16.87 0.664
09:27 1023 30.21 852 25.16 16.5 61.6 40 2.8 37.1 16.97 0.668
09:28 1023 30.21 852 25.16 16.5 61.7 42 3.8 38.8 17.06 0.672
09:29 1023 30.21 852 25.16 16.5 61.8 39 2.6 36.7 17.16 0.676
09:30 1023 30.21 852 25.16 16.6 61.8 40 3.1 37.6 17.17 0.676
09:31 1023 30.21 852 25.16 16.6 62 37 2 35.7 17.28 0.68
09:32 1023 30.21 852 25.16 16.7 62 41 3.3 38 17.33 0.682
09:33 1023 30.21 852 25.16 16.8 62.3 37 2.1 35.7 17.48 0.688
09:34 1023 30.21 852 25.16 17 62.6 39 3.1 37.5 17.67 0.696
09:35 1023 30.21 852 25.16 17.3 63.1 37 2.4 36.4 17.91 0.705
09:36 1023 30.21 852 25.16 17.6 63.6 36 2.4 36.3 18.05 0.711
09:37 1023 30.21 852 25.16 17.8 64 33 1.5 34.7 18.19 0.716
09:38 1023 30.21 852 25.16 17.9 64.2 34 1.8 35.2 18.34 0.722
09:39 1023 30.21 852 25.16 18 64.4 30 0.4 32.7 18.45 0.726
09:40 1023 30.21 852 25.16 17.9 64.2 30 0.1 32.1 18.28 0.72
09:41 1023 30.21 852 25.16 17.9 64.2 33 1.4 34.5 18.27 0.719
09:42 1023 30.21 852 25.16 18.1 64.5 30 0.4 32.6 18.38 0.724
09:43 1023 30.21 852 25.16 18.1 64.6 30 0.6 33 18.45 0.726
09:44 1023 30.21 852 25.16 18.3 64.9 32 1.6 34.9 18.62 0.733
09:45 1023 30.21 852 25.16 18.4 65.1 29 0.3 32.5 18.67 0.735
09:46 1023 30.21 852 25.16 18.5 65.3 30 0.6 33.1 18.87 0.743
09:47 1023 30.21 852 25.16 18.8 65.8 30 1.1 34 19.11 0.752
09:48 1023 30.21 852 25.16 19 66.3 29 0.7 33.3 19.27 0.759
09:49 1023 30.21 852 25.16 18.9 66.1 31 1.7 35.1 19.27 0.759
09:50 1023 30.21 852 25.16 18.9 66 32 2 35.7 19.26 0.758
09:51 1023 30.21 852 25.16 18.9 66 31 1.5 34.6 19.22 0.757
09:52 1023 30.21 852 25.16 18.9 66 32 2 35.7 19.18 0.755
09:53 1023 30.21 852 25.16 18.9 66.1 32 2.2 35.9 19.24 0.757
09:54 1023 30.21 852 25.16 18.9 66 29 0.7 33.3 19.22 0.757
09:55 1023 30.21 852 25.16 18.8 65.8 30 0.9 33.7 19.1 0.752
09:56 1023 30.21 852 25.16 18.8 65.9 30 1 33.8 19.14 0.754
09:57 1023 30.21 852 25.16 18.9 66.1 30 1.2 34.2 19.24 0.757
09:58 1023 30.21 852 25.16 19 66.2 28 0.4 32.7 19.32 0.761
09:59 1023 30.21 852 25.16 19.1 66.3 29 0.7 33.3 19.13 0.753
10:00 1023 30.21 852 25.16 19.1 66.4 30 1.4 34.6 19.13 0.753
10:01 1023 30.21 852 25.16 19.2 66.6 30 1.4 34.4 19.32 0.761
10:02 1023 30.21 852 25.16 19.5 67 32 2.5 36.5 19.57 0.77
10:03 1023 30.21 852 25.16 19.6 67.2 30 1.5 34.7 19.74 0.777
10:04 1023 30.21 852 25.16 19.6 67.4 31 2.1 35.7 19.83 0.781
10:05 1023 30.21 852 25.16 19.6 67.2 31 2.3 36.2 19.8 0.78
10:06 1023 30.21 852 25.16 19.4 66.8 30 1.7 35.1 19.62 0.772
10:07 1023 30.21 852 25.16 19.2 66.5 31 1.8 35.2 19.47 0.767
10:08 1023 30.21 852 25.16 19.1 66.4 31 1.9 35.4 19.34 0.761
10:09 1023 30.21 852 25.16 19.1 66.4 32 2 35.6 19.31 0.76
10:10 1023 30.21 852 25.16 19.1 66.4 32 2.3 36.1 19.29 0.759
10:11 1023 30.21 852 25.16 19 66.2 30 1.1 34 19.18 0.755
10:12 1023 30.21 852 25.16 18.9 66 32 2.1 35.8 19.12 0.753
10:13 1023 30.21 852 25.16 18.9 65.9 34 2.7 36.9 19.06 0.75
10:14 1023 30.21 852 25.16 18.9 65.9 31 1.7 35 19.08 0.751
10:15 1023 30.21 852 25.16 18.8 65.8 34 2.7 36.9 19.06 0.75
10:16 1023 30.21 852 25.16 18.7 65.6 31 1.2 34.1 18.96 0.746
10:17 1023 30.21 852 25.16 18.6 65.4 35 3.1 37.6 18.87 0.743
10:18 1023 30.21 852 25.16 18.6 65.5 31 1.2 34.1 18.88 0.743
10:19 1023 30.21 852 25.16 18.5 65.2 31 0.9 33.7 18.79 0.74
10:20 1023 30.21 852 25.16 18.4 65.2 32 1.4 34.5 18.78 0.739
10:21 1023 30.21 852 25.16 18.5 65.3 33 1.9 35.5 18.84 0.742
10:22 1023 30.21 852 25.16 18.6 65.5 33 2.1 35.8 18.94 0.746
10:23 1023 30.21 852 25.16 18.8 65.8 32 2 35.6 19.04 0.75
10:24 1023 30.21 852 25.16 18.8 65.8 35 3 37.5 19.11 0.752
10:25 1023 30.21 852 25.16 18.8 65.8 35 3.1 37.6 19.13 0.753
10:26 1023 30.21 852 25.16 18.8 65.8 32 1.8 35.2 19.11 0.752
10:27 1023 30.21 852 25.16 18.6 65.5 35 2.8 37.1 19 0.748
10:28 1023 30.21 852 25.16 18.5 65.4 32 1.9 35.3 18.97 0.747
10:29 1023 30.21 852 25.16 18.5 65.3 33 2.2 36 18.91 0.744
10:30 1023 30.21 852 25.16 18.5 65.3 31 1.2 34.1 18.86 0.743
10:31 1023 30.21 852 25.16 18.4 65.2 33 2 35.5 18.84 0.742
10:32 1023 30.21 852 25.16 18.4 65.1 33 1.9 35.5 18.85 0.742
10:33 1023 30.21 852 25.16 18.3 64.9 32 1.6 34.8 18.71 0.737
10:34 1023 30.21 852 25.16 18.2 64.8 34 2.4 36.3 18.69 0.736
10:35 1023 30.21 852 25.16 18.3 64.9 39 4.3 39.8 18.67 0.735
10:36 1023 30.21 852 25.16 18.3 64.9 36 3 37.4 18.75 0.738
10:37 1023 30.21 852 25.16 18.3 65 33 2.1 35.8 18.75 0.738
10:38 1023 30.21 852 25.16 18.3 65 33 2.1 35.8 18.75 0.738
10:39 1023 30.21 852 25.16 18.3 64.9 32 1.3 34.3 18.71 0.737
10:40 1022 30.18 852 25.16 18.3 64.9 32 1.5 34.6 18.68 0.735
10:41 1023 30.21 852 25.16 18.2 64.8 33 1.9 35.4 18.68 0.735
10:42 1022 30.18 852 25.16 18.2 64.8 35 2.6 36.7 18.7 0.736
10:43 1023 30.21 852 25.16 18.3 64.9 32 1.5 34.7 18.73 0.737
10:44 1022 30.18 852 25.16 18.4 65 32 1.3 34.4 18.79 0.74
10:45 1022 30.18 852 25.16 18.5 65.2 32 1.6 34.9 18.89 0.744
10:46 1022 30.18 852 25.16 18.6 65.4 32 1.8 35.2 18.99 0.748
10:47 1022 30.18 852 25.16 18.6 65.6 33 2.4 36.2 18.98 0.747
10:48 1022 30.18 852 25.16 18.7 65.6 31 1.5 34.6 18.99 0.748
10:49 1022 30.18 852 25.16 18.7 65.6 37 3.9 39 19.01 0.748
10:50 1022 30.18 852 25.16 18.6 65.6 33 2.3 36.2 19.03 0.749
10:51 1022 30.18 852 25.16 18.6 65.5 33 2.3 36.2 19.02 0.749
10:52 1022 30.18 852 25.16 18.6 65.4 35 2.9 37.3 18.94 0.746
10:53 1022 30.18 852 25.16 18.5 65.3 33 2.1 35.7 18.91 0.744
10:54 1022 30.18 852 25.16 18.5 65.3 33 2.2 36 18.86 0.743
10:55 1022 30.18 852 25.16 18.5 65.3 37 3.6 38.5 18.94 0.746
10:56 1022 30.18 852 25.16 18.6 65.5 37 3.8 38.9 19.03 0.749
10:57 1022 30.18 852 25.16 18.8 65.8 36 3.6 38.4 19.13 0.753
10:58 1022 30.18 852 25.16 18.9 66 31 1.7 35 19.22 0.757
10:59 1022 30.18 852 25.16 19 66.2 35 3.2 37.8 19.31 0.76
11:00 1022 30.18 852 25.16 19.1 66.4 31 1.7 35 19.43 0.765
11:01 1022 30.18 852 25.16 19.1 66.5 32 2.3 36.2 19.48 0.767
11:02 1022 30.18 852 25.16 19.2 66.6 36 3.8 38.9 19.58 0.771
11:03 1022 30.18 852 25.16 19.3 66.8 34 3 37.5 19.72 0.776
11:04 1022 30.18 852 25.16 19.5 67.1 30 1.6 34.9 19.87 0.782
11:05 1022 30.18 852 25.16 19.6 67.2 31 2.1 35.8 19.86 0.782
11:06 1022 30.18 852 25.16 19.6 67.3 32 2.4 36.4 19.82 0.78
11:07 1022 30.18 852 25.16 19.8 67.7 35 3.9 39 20.05 0.789
11:08 1022 30.18 852 25.16 20.1 68.2 32 3 37.4 20.26 0.798
11:09 1022 30.18 852 25.16 20.1 68.2 30 2.3 36.1 20.32 0.8
11:10 1022 30.18 852 25.16 20 67.9 32 2.9 37.3 20.22 0.796
11:11 1022 30.18 852 25.16 19.8 67.6 32 2.7 36.8 20.07 0.79
11:12 1022 30.18 852 25.16 19.6 67.3 32 2.5 36.6 19.92 0.784
11:13 1022 30.18 851 25.13 19.5 67.1 32 2.6 36.8 19.81 0.78
11:14 1022 30.18 851 25.13 19.5 67.1 31 2 35.5 19.81 0.78
11:15 1022 30.18 851 25.13 19.4 67 31 2 35.6 19.75 0.778
11:16 1022 30.18 851 25.13 19.4 66.8 30 1.6 34.9 19.67 0.774
11:17 1022 30.18 851 25.13 19.2 66.6 34 3 37.5 19.56 0.77
11:18 1022 30.18 851 25.13 19.3 66.7 33 2.8 37 19.6 0.772
11:19 1022 30.18 851 25.13 19.3 66.8 33 2.9 37.2 19.63 0.773
11:20 1022 30.18 851 25.13 19.4 66.8 33 3 37.5 19.68 0.775
11:21 1022 30.18 851 25.13 19.4 66.9 31 1.9 35.3 19.72 0.776
11:22 1022 30.18 851 25.13 19.4 67 29 1.3 34.4 19.75 0.778
11:23 1022 30.18 851 25.13 19.5 67 30 1.6 35 19.78 0.779
11:24 1022 30.18 851 25.13 19.6 67.2 31 2 35.7 19.92 0.784
11:25 1022 30.18 851 25.13 19.8 67.6 31 2.1 35.8 20.06 0.79
11:26 1022 30.18 851 25.13 19.9 67.9 30 2.1 35.8 20.26 0.798
11:27 1022 30.18 851 25.13 20.1 68.1 28 0.9 33.7 20.44 0.805
11:28 1022 30.18 851 25.13 20.1 68.3 27 0.9 33.7 20.52 0.808
11:29 1022 30.18 851 25.13 20.4 68.7 27 1 33.9 20.77 0.818
11:30 1022 30.18 851 25.13 20.6 69 28 1.5 34.8 20.94 0.824
11:31 1022 30.18 851 25.13 20.8 69.4 28 2 35.5 21.16 0.833
11:32 1022 30.18 851 25.13 20.9 69.6 30 3 37.4 21.25 0.837
11:33 1022 30.18 851 25.13 20.8 69.4 25 0.2 32.3 21.11 0.831
11:34 1022 30.18 851 25.13 20.8 69.4 25 -0 31.9 21.06 0.829
11:35 1022 30.18 851 25.13 20.8 69.4 24 -0.2 31.6 21.09 0.83
11:36 1022 30.18 851 25.13 20.9 69.6 25 0.1 32.1 21.17 0.833
11:37 1022 30.18 851 25.13 21 69.8 26 1.1 33.9 21.22 0.835
11:38 1022 30.18 851 25.13 21.2 70.1 25 0.6 33.1 21.31 0.839
11:39 1022 30.18 851 25.13 21.3 70.3 27 1.9 35.4 21.35 0.841
11:40 1022 30.18 851 25.13 21.4 70.5 28 2.3 36.2 21.5 0.846
11:41 1022 30.18 851 25.13 21.4 70.5 26 1.4 34.6 21.62 0.851
11:42 1022 30.18 851 25.13 21.4 70.6 27 1.9 35.4 21.63 0.852
11:43 1022 30.18 851 25.13 21.5 70.6 27 2 35.7 21.69 0.854
11:44 1022 30.18 851 25.13 21.4 70.6 27 1.7 35 21.71 0.855
11:45 1022 30.18 851 25.13 21.3 70.3 25 0.6 33 21.49 0.846
11:46 1022 30.18 851 25.13 21.2 70.1 25 0.3 32.5 21.35 0.841
11:47 1022 30.18 851 25.13 21 69.8 27 1.4 34.6 21.21 0.835
11:48 1022 30.18 851 25.13 21 69.7 25 0.3 32.5 21.18 0.834
11:49 1022 30.18 851 25.13 20.9 69.6 26 1.1 33.9 21.13 0.832
11:50 1022 30.18 851 25.13 21 69.7 27 1.2 34.2 21.18 0.834
11:51 1022 30.18 851 25.13 20.9 69.7 26 1 33.7 21.2 0.835
11:52 1022 30.18 851 25.13 20.8 69.5 26 0.7 33.2 21.16 0.833
11:53 1022 30.18 851 25.13 20.8 69.4 27 1.1 34 21.13 0.832
11:54 1022 30.18 851 25.13 20.8 69.4 27 1.5 34.7 21.13 0.832
11:55 1022 30.18 851 25.13 20.8 69.4 29 2.3 36.1 21.15 0.833
11:56 1022 30.18 851 25.13 20.9 69.5 27 1.3 34.3 21.22 0.835
11:57 1022 30.18 851 25.13 20.9 69.7 27 1.3 34.4 21.26 0.837
11:58 1022 30.18 851 25.13 20.9 69.6 28 1.9 35.5 21.28 0.838
11:59 1022 30.18 851 25.13 20.8 69.5 26 0.9 33.5 21.19 0.834
12:00 1022 30.18 851 25.13 20.9 69.6 29 2.2 36 21.14 0.832
12:01 1022 30.18 851 25.13 20.9 69.6 25 0.3 32.5 21.11 0.831
12:02 1022 30.18 851 25.13 20.8 69.4 24 -0.4 31.4 21.1 0.831
12:03 1022 30.18 851 25.13 20.8 69.4 25 0.5 32.8 21.13 0.832
12:04 1022 30.18 851 25.13 20.9 69.6 31 3.5 38.2 21.27 0.837
12:05 1022 30.18 851 25.13 21.1 69.9 26 1.1 34.1 21.44 0.844
12:06 1021 30.15 851 25.13 21.2 70.2 29 2.8 37 21.55 0.848
12:07 1021 30.15 851 25.13 21.3 70.4 26 1.1 33.9 21.5 0.846
12:08 1021 30.15 851 25.13 21.3 70.4 24 0.1 32.2 21.43 0.844
12:09 1021 30.15 851 25.13 21.3 70.3 23 -0.2 31.6 21.39 0.842
12:10 1021 30.15 851 25.13 21.4 70.4 26 1.3 34.3 21.45 0.844
12:11 1021 30.15 851 25.13 21.5 70.6 24 0.5 32.9 21.6 0.85
12:12 1021 30.15 851 25.13 21.6 70.9 25 0.8 33.5 21.74 0.856
12:13 1021 30.15 851 25.13 21.7 71.1 24 0.7 33.3 21.89 0.862
12:14 1021 30.15 851 25.13 21.9 71.4 24 0.9 33.6 22.06 0.869
12:15 1021 30.15 851 25.13 21.8 71.2 29 3.1 37.7 22.05 0.868
12:16 1021 30.15 851 25.13 21.8 71.3 24 0.3 32.5 22.17 0.873
12:17 1021 30.15 851 25.13 21.8 71.2 24 0.7 33.2 22.13 0.871
12:18 1021 30.15 851 25.13 21.7 71.1 23 -0.1 31.8 22.18 0.873
12:19 1021 30.15 851 25.13 21.7 71.1 27 2 35.6 22.2 0.874
12:20 1021 30.15 851 25.13 22 71.5 23 0.3 32.5 22.4 0.882
12:21 1021 30.15 851 25.13 22.2 71.9 25 1.3 34.4 22.45 0.884
12:22 1021 30.15 850 25.1 22.3 72.1 24 0.6 33.1 22.43 0.883
12:23 1021 30.15 850 25.1 22.2 72 26 2.1 35.8 22.43 0.883
12:24 1021 30.15 850 25.1 22.1 71.8 25 1.6 34.9 22.26 0.876
12:25 1021 30.15 850 25.1 22 71.6 25 1.2 34.1 22.13 0.871
12:26 1021 30.15 850 25.1 22 71.5 25 1.3 34.3 22.08 0.869
12:27 1021 30.15 850 25.1 22 71.5 26 1.5 34.8 22.03 0.867
12:28 1021 30.15 850 25.1 22 71.6 24 0.8 33.5 22.09 0.87
12:29 1021 30.15 850 25.1 22 71.6 25 1.2 34.1 22.09 0.87
12:30 1021 30.15 850 25.1 22 71.7 24 0.7 33.2 22.14 0.872
12:31 1021 30.15 850 25.1 22.1 71.8 23 0.3 32.6 22.25 0.876
12:32 1021 30.15 850 25.1 22.2 72 24 0.9 33.6 22.33 0.879
12:33 1021 30.15 850 25.1 22.3 72.2 24 0.9 33.5 22.39 0.881
12:34 1021 30.15 850 25.1 22.5 72.4 25 1.9 35.4 22.54 0.887
12:35 1021 30.15 850 25.1 22.5 72.5 28 3.4 38.1 22.59 0.889
12:36 1021 30.15 850 25.1 22.5 72.6 23 0.5 33 22.68 0.893
12:37 1021 30.15 850 25.1 22.5 72.4 23 0.6 33.2 22.64 0.891
12:38 1021 30.15 850 25.1 22.4 72.3 23 0.2 32.4 22.63 0.891
12:39 1021 30.15 850 25.1 22.5 72.4 25 1.5 34.7 22.64 0.891
12:40 1021 30.15 850 25.1 22.5 72.5 25 1.8 35.2 22.69 0.893
12:41 1021 30.15 850 25.1 22.4 72.2 27 2.6 36.6 22.64 0.891
12:42 1021 30.15 850 25.1 22.4 72.2 24 1.1 34 22.64 0.891
12:43 1021 30.15 850 25.1 22.3 72.2 25 1.3 34.3 22.68 0.893
12:44 1021 30.15 850 25.1 22.4 72.2 27 2.5 36.5 22.76 0.896
12:45 1021 30.15 850 25.1 22.5 72.6 24 1.1 34 22.86 0.9
12:46 1021 30.15 850 25.1 22.6 72.7 24 1 33.7 22.88 0.901
12:47 1021 30.15 850 25.1 22.6 72.8 25 2.1 35.7 22.9 0.902
12:48 1021 30.15 850 25.1 22.6 72.7 24 1.1 34 22.86 0.9
12:49 1021 30.15 850 25.1 22.5 72.5 27 3 37.3 22.81 0.898
12:50 1021 30.15 850 25.1 22.5 72.4 28 3.3 38 22.85 0.9
12:51 1021 30.15 850 25.1 22.5 72.4 25 1.7 35.1 22.78 0.897
12:52 1021 30.15 850 25.1 22.3 72.2 26 2.2 36 22.63 0.891
12:53 1021 30.15 850 25.1 22.2 71.9 26 1.8 35.2 22.56 0.888
12:54 1021 30.15 850 25.1 22.3 72.1 23 0.4 32.7 22.61 0.89
12:55 1021 30.15 850 25.1 22.3 72.1 26 2.1 35.8 22.61 0.89
12:56 1021 30.15 850 25.1 22.4 72.3 24 1.1 33.9 22.68 0.893
12:57 1021 30.15 850 25.1 22.5 72.5 25 1.5 34.7 22.83 0.899
12:58 1021 30.15 850 25.1 22.6 72.8 24 1.1 34 22.98 0.905
12:59 1021 30.15 850 25.1 22.8 73.1 24 1.3 34.4 23.1 0.909
13:00 1021 30.15 850 25.1 23 73.3 23 1.2 34.1 23.15 0.911
13:01 1021 30.15 850 25.1 23 73.5 23 1.3 34.3 23.25 0.915
13:02 1021 30.15 850 25.1 23.2 73.8 24 1.9 35.4 23.42 0.922
13:03 1021 30.15 850 25.1 23.4 74.1 24 2.2 35.9 23.59 0.929
13:04 1021 30.15 850 25.1 23.5 74.2 22 0.6 33.1 23.69 0.933
13:05 1021 30.15 850 25.1 23.5 74.3 22 0.8 33.5 23.51 0.926
13:06 1021 30.15 850 25.1 23.5 74.2 23 1.3 34.4 23.47 0.924
13:07 1021 30.15 850 25.1 23.4 74.2 22 0.9 33.5 23.36 0.92
13:08 1021 30.15 850 25.1 23.3 74 24 2 35.6 23.37 0.92
13:09 1021 30.15 850 25.1 23.3 74 23 1.2 34.2 23.43 0.922
13:10 1021 30.15 850 25.1 23.4 74.1 23 1.6 34.8 23.68 0.932
13:11 1021 30.15 850 25.1 23.5 74.3 21 0.3 32.6 23.83 0.938
13:12 1021 30.15 850 25.1 23.5 74.3 21 0.2 32.4 23.91 0.941
13:13 1021 30.15 850 25.1 23.5 74.4 22 0.5 32.9 23.98 0.944
13:14 1021 30.15 850 25.1 23.7 74.6 24 2.1 35.8 24.03 0.946
13:15 1020 30.12 850 25.1 24 75.1 21 0.7 33.2 24.34 0.958
13:16 1020 30.12 850 25.1 24.2 75.5 22 1.3 34.4 24.54 0.966
13:17 1020 30.12 850 25.1 24.5 76 22 1.7 35 24.83 0.978
13:18 1020 30.12 850 25.1 24.7 76.4 22 2 35.5 24.84 0.978
13:19 1020 30.12 849 25.07 24.8 76.6 23 2.4 36.3 25.05 0.986
13:20 1020 30.12 849 25.07 25 76.9 22 1.9 35.4 25.3 0.996
13:21 1020 30.12 849 25.07 24.9 76.8 21 1.4 34.6 25.23 0.993
13:22 1020 30.12 849 25.07 24.8 76.7 21 1.2 34.2 25.08 0.987
13:23 1020 30.12 849 25.07 24.7 76.5 20 0.5 32.9 25.05 0.986
13:24 1020 30.12 849 25.07 24.7 76.4 22 1.6 34.8 24.97 0.983
13:25 1020 30.12 849 25.07 24.7 76.5 20 0.2 32.4 24.94 0.982
13:26 1020 30.12 849 25.07 24.8 76.6 23 2.3 36.1 24.9 0.98
13:27 1020 30.12 849 25.07 24.8 76.6 21 1.4 34.6 24.98 0.983
13:28 1020 30.12 849 25.07 24.8 76.7 23 2.4 36.3 25.1 0.988
13:29 1020 30.12 849 25.07 24.8 76.6 22 1.7 35 25.12 0.989
13:30 1020 30.12 849 25.07 24.7 76.4 24 2.9 37.2 25.05 0.986
13:31 1020 30.12 849 25.07 24.8 76.6 20 0.8 33.5 25.18 0.991
13:32 1020 30.12 849 25.07 24.9 76.8 22 1.9 35.5 25.17 0.991
13:33 1020 30.12 849 25.07 25 77 20 0.8 33.5 25.25 0.994
13:34 1020 30.12 849 25.07 25 77 24 3.4 38.2 25.26 0.994
13:35 1020 30.12 849 25.07 25 77 22 2 35.6 25.23 0.993
13:36 1020 30.12 849 25.07 25 77 21 1.3 34.3 25.25 0.994
13:37 1020 30.12 849 25.07 25 76.9 20 0.9 33.6 25.16 0.991
13:38 1020 30.12 849 25.07 24.9 76.9 21 1.6 34.9 25.02 0.985
13:39 1020 30.12 849 25.07 24.9 76.9 22 1.9 35.4 25.04 0.986
13:40 1020 30.12 849 25.07 25 77 24 3.2 37.8 25.08 0.987
13:41 1020 30.12 849 25.07 25.1 77.2 21 1.8 35.2 25.32 0.997
13:42 1020 30.12 849 25.07 25.3 77.5 22 2.4 36.4 25.47 1.003
13:43 1020 30.12 849 25.07 25.4 77.7 23 3.2 37.7 25.57 1.007
13:44 1020 30.12 849 25.07 25.5 77.8 21 2 35.7 25.63 1.009
13:45 1020 30.12 849 25.07 25.3 77.6 19 0.3 32.5 25.54 1.006
13:46 1020 30.12 849 25.07 25.3 77.5 19 0.1 32.1 25.51 1.004
13:47 1020 30.12 849 25.07 25.2 77.4 19 0.1 32.1 25.5 1.004
13:48 1020 30.12 849 25.07 25.3 77.6 20 0.9 33.6 25.59 1.007
13:49 1020 30.12 849 25.07 25.3 77.5 17 -1.2 29.8 25.64 1.009
13:50 1020 30.12 849 25.07 25.3 77.5 21 1.4 34.5 25.63 1.009
13:51 1020 30.12 849 25.07 25.3 77.6 20 0.8 33.4 25.68 1.011
13:52 1020 30.12 849 25.07 25.2 77.4 23 3.1 37.6 25.55 1.006
13:53 1020 30.12 849 25.07 25.2 77.4 20 0.9 33.6 25.52 1.005
13:54 1020 30.12 849 25.07 25.3 77.5 22 2.1 35.8 25.58 1.007
13:55 1020 30.12 849 25.07 25.3 77.5 22 2.5 36.5 25.64 1.009
13:56 1020 30.12 849 25.07 25.3 77.6 21 1.4 34.5 25.66 1.01
13:57 1020 30.12 849 25.07 25.3 77.6 23 3 37.5 25.66 1.01
13:58 1020 30.12 849 25.07 25.4 77.7 22 2.6 36.7 25.65 1.01
13:59 1020 30.12 849 25.07 25.4 77.8 18 -0 32 25.69 1.011
14:00 1020 30.12 849 25.07 25.6 78 16 -1.8 28.7 25.88 1.019
14:01 1020 30.12 849 25.07 25.8 78.4 15 -2.2 28 26.08 1.027
14:02 1020 30.12 849 25.07 26 78.9 16 -1.2 29.8 26.37 1.038
14:03 1020 30.12 849 25.07 26.2 79.2 18 0.1 32.1 26.61 1.048
14:04 1020 30.12 849 25.07 26.4 79.5 17 -0.7 30.7 26.72 1.052
14:05 1020 30.12 849 25.07 26.4 79.5 18 0.2 32.3 26.76 1.054
14:06 1020 30.12 849 25.07 26.4 79.5 18 0.2 32.4 26.76 1.054
14:07 1020 30.12 849 25.07 26.3 79.4 17 -0.1 31.8 26.73 1.052
14:08 1020 30.12 849 25.07 26.4 79.5 17 -0.2 31.7 26.77 1.054
14:09 1020 30.12 849 25.07 26.4 79.5 15 -2.4 27.8 26.79 1.055
14:10 1019 30.09 849 25.07 26.4 79.4 14 -3.2 26.3 26.74 1.053
14:11 1019 30.09 849 25.07 26.4 79.5 15 -2.4 27.7 26.81 1.056
14:12 1019 30.09 849 25.07 26.5 79.6 18 0.6 33.1 26.86 1.057
14:13 1019 30.09 849 25.07 26.5 79.8 17 -0.6 31 26.96 1.061
14:14 1019 30.09 849 25.07 26.6 79.9 14 -2.4 27.7 27.03 1.064
14:15 1019 30.09 849 25.07 26.6 79.8 14 -3.1 26.4 26.97 1.062
14:16 1019 30.09 849 25.07 26.5 79.7 16 -0.7 30.7 26.89 1.059
14:17 1019 30.09 849 25.07 26.5 79.6 15 -1.8 28.8 26.85 1.057
14:18 1019 30.09 849 25.07 26.5 79.6 17 -0.5 31.2 26.85 1.057
14:19 1019 30.09 849 25.07 26.5 79.7 16 -1.3 29.6 26.85 1.057
14:20 1019 30.09 849 25.07 26.5 79.8 16 -0.9 30.3 26.88 1.058
14:21 1019 30.09 848 25.04 26.6 79.8 16 -1.2 29.9 26.91 1.059
14:22 1019 30.09 848 25.04 26.6 79.9 16 -1.2 29.9 27.01 1.063
14:23 1019 30.09 848 25.04 26.7 80.1 17 0.1 32.2 27.06 1.065
14:24 1019 30.09 848 25.04 26.7 80.1 16 -1 30.1 27.07 1.066
14:25 1019 30.09 848 25.04 26.6 79.9 14 -2.8 27 26.94 1.061
14:26 1019 30.09 848 25.04 26.5 79.7 16 -1.4 29.6 26.92 1.06
14:27 1019 30.09 848 25.04 26.5 79.7 14 -3.2 26.2 26.9 1.059
14:28 1019 30.09 848 25.04 26.5 79.7 14 -2.5 27.6 26.85 1.057
14:29 1019 30.09 848 25.04 26.4 79.6 15 -1.7 29 26.81 1.056
14:30 1019 30.09 848 25.04 26.4 79.6 16 -1.4 29.6 26.83 1.056
14:31 1019 30.09 848 25.04 26.5 79.8 14 -2.7 27.1 26.93 1.06
14:32 1019 30.09 848 25.04 26.6 79.9 16 -0.7 30.8 27.05 1.065
14:33 1019 30.09 848 25.04 26.7 80.1 14 -2.5 27.5 27.06 1.065
14:34 1019 30.09 848 25.04 26.6 79.9 14 -2.5 27.6 26.99 1.063
14:35 1019 30.09 848 25.04 26.6 79.8 16 -1.5 29.4 26.91 1.059
14:36 1019 30.09 848 25.04 26.4 79.6 14 -3 26.7 26.78 1.054
14:37 1019 30.09 848 25.04 26.3 79.3 15 -2.6 27.4 26.67 1.05
14:38 1019 30.09 848 25.04 26.3 79.3 15 -2.5 27.5 26.65 1.049
14:39 1019 30.09 848 25.04 26.3 79.3 15 -2.3 27.8 26.71 1.052
14:40 1019 30.09 848 25.04 26.5 79.6 14 -2.9 26.7 26.81 1.056
14:41 1019 30.09 848 25.04 26.5 79.6 14 -2.5 27.5 26.84 1.057
14:42 1019 30.09 848 25.04 26.6 79.8 16 -0.8 30.5 26.97 1.062
14:43 1019 30.09 848 25.04 26.7 80 15 -1.7 29 27.09 1.067
14:44 1019 30.09 848 25.04 26.8 80.2 16 -0.5 31.1 27.16 1.069
14:45 1019 30.09 848 25.04 26.8 80.3 12 -4.5 24 27.21 1.071
14:46 1019 30.09 848 25.04 26.7 80 16 -1 30.2 27.07 1.066
14:47 1019 30.09 848 25.04 26.7 80.1 15 -2.2 28 27.1 1.067
14:48 1019 30.09 848 25.04 26.7 80.1 13 -3.5 25.7 27.08 1.066
14:49 1019 30.09 848 25.04 26.7 80 15 -1.9 28.5 27.05 1.065
14:50 1019 30.09 848 25.04 26.7 80 15 -2 28.3 27.06 1.065
14:51 1019 30.09 848 25.04 26.6 79.8 14 -2.4 27.7 26.95 1.061
14:52 1019 30.09 848 25.04 26.5 79.6 16 -1.2 29.8 26.84 1.057
14:53 1019 30.09 848 25.04 26.4 79.6 15 -1.6 29.1 26.81 1.056
14:54 1018 30.06 848 25.04 26.5 79.6 13 -4.2 24.5 26.82 1.056
14:55 1018 30.06 848 25.04 26.5 79.8 15 -2.1 28.2 26.92 1.06
14:56 1018 30.06 848 25.04 26.7 80 14 -2.5 27.5 27.02 1.064
14:57 1018 30.06 848 25.04 26.7 80 15 -1.5 29.4 27.02 1.064
14:58 1018 30.06 848 25.04 26.6 79.9 14 -2.8 26.9 27.02 1.064
14:59 1018 30.06 848 25.04 26.6 79.9 14 -3 26.6 26.99 1.063
15:00 1018 30.06 848 25.04 26.6 79.9 13 -3.4 26 27.01 1.063
15:01 1018 30.06 847 25.01 26.7 80 14 -2.9 26.8 27.04 1.065
15:02 1018 30.06 847 25.01 26.7 80 14 -3.1 26.4 27.04 1.065
15:03 1018 30.06 847 25.01 26.6 79.9 14 -2.8 27 26.99 1.063
15:04 1018 30.06 847 25.01 26.6 79.9 14 -3 26.6 26.97 1.062
15:05 1018 30.06 847 25.01 26.6 79.8 14 -3.3 26.1 26.95 1.061
15:06 1018 30.06 847 25.01 26.5 79.8 13 -3.4 25.8 26.96 1.061
15:07 1018 30.06 847 25.01 26.6 79.8 14 -3.1 26.5 26.92 1.06
15:08 1018 30.06 847 25.01 26.5 79.8 14 -2.8 27 26.89 1.059
15:09 1018 30.06 847 25.01 26.5 79.6 15 -1.7 29 26.88 1.058
15:10 1018 30.06 847 25.01 26.5 79.7 17 -0.5 31.2 26.89 1.059
15:11 1018 30.06 847 25.01 26.6 79.9 14 -3 26.6 26.96 1.061
15:12 1018 30.06 847 25.01 26.7 80 14 -2.7 27.2 27.06 1.065
15:13 1018 30.06 847 25.01 26.8 80.2 14 -2.7 27.1 27.15 1.069
15:14 1018 30.06 847 25.01 26.8 80.2 15 -1.5 29.4 27.16 1.069
15:15 1018 30.06 847 25.01 26.7 80.1 13 -4.2 24.4 27.14 1.069
15:16 1018 30.06 847 25.01 26.6 79.9 13 -3.6 25.6 27.02 1.064
15:17 1018 30.06 847 25.01 26.6 79.9 15 -2.2 28.1 26.99 1.063
15:18 1018 30.06 847 25.01 26.6 79.9 14 -3.1 26.4 26.99 1.063
15:19 1018 30.06 847 25.01 26.6 79.9 14 -2.8 26.9 27 1.063
15:20 1018 30.06 847 25.01 26.6 79.9 16 -1 30.1 26.99 1.063
15:21 1018 30.06 847 25.01 26.7 80 16 -0.9 30.4 27.03 1.064
15:22 1018 30.06 847 25.01 26.7 80.1 13 -3.2 26.2 27.03 1.064
15:23 1018 30.06 847 25.01 26.7 80 13 -3.8 25.2 27.02 1.064
15:24 1018 30.06 847 25.01 26.7 80 13 -3.7 25.4 27.07 1.066
15:25 1018 30.06 847 25.01 26.7 80 13 -4.2 24.4 27.06 1.065
15:26 1018 30.06 847 25.01 26.7 80 13 -3.3 26.1 27.03 1.064
15:27 1018 30.06 847 25.01 26.6 80 14 -3.2 26.2 27 1.063
15:28 1018 30.06 847 25.01 26.6 79.9 13 -3.7 25.3 26.97 1.062
15:29 1018 30.06 847 25.01 26.6 79.9 14 -2.8 26.9 26.95 1.061
15:30 1018 30.06 847 25.01 26.6 79.9 14 -2.8 27 27 1.063
15:31 1018 30.06 847 25.01 26.6 80 13 -4 24.8 27.04 1.065
15:32 1018 30.06 847 25.01 26.6 79.8 14 -3.3 26.1 26.91 1.059
15:33 1018 30.06 847 25.01 26.5 79.8 13 -4.1 24.7 26.91 1.059
15:34 1018 30.06 847 25.01 26.6 79.8 13 -3.8 25.1 26.94 1.061
15:35 1018 30.06 847 25.01 26.6 79.9 13 -3.5 25.8 27 1.063
15:36 1018 30.06 847 25.01 26.6 79.9 13 -3.4 25.8 27.02 1.064
15:37 1018 30.06 847 25.01 26.7 80 13 -3.6 25.6 27.07 1.066
15:38 1018 30.06 847 25.01 26.7 80 13 -3.3 26.1 27.04 1.065
15:39 1018 30.06 847 25.01 26.7 80 14 -2.5 27.5 27.06 1.065
15:40 1018 30.06 847 25.01 26.7 80 15 -2.2 28.1 27.07 1.066
15:41 1018 30.06 847 25.01 26.7 80.1 14 -2.8 26.9 27.12 1.068
15:42 1018 30.06 847 25.01 26.7 80.1 13 -3.9 25.1 27.09 1.067
15:43 1018 30.06 847 25.01 26.7 80 13 -4.1 24.6 27.06 1.065
15:44 1018 30.06 847 25.01 26.7 80 14 -3.1 26.4 27.04 1.065
15:45 1018 30.06 847 25.01 26.7 80 13 -3.3 26.1 27.05 1.065
15:46 1018 30.06 847 25.01 26.7 80 14 -2.7 27.2 27.08 1.066
15:47 1018 30.06 847 25.01 26.7 80 14 -2.7 27.2 27.1 1.067
15:48 1018 30.06 847 25.01 26.7 80 12 -4.6 23.6 27.11 1.067
15:49 1018 30.06 847 25.01 26.7 80.1 12 -4.5 23.9 27.11 1.067
15:50 1018 30.06 847 25.01 26.7 80.1 14 -2.6 27.3 27.15 1.069
15:51 1018 30.06 847 25.01 26.8 80.2 12 -4.2 24.4 27.2 1.071
15:52 1018 30.06 847 25.01 26.8 80.2 16 -1.1 30.1 27.14 1.069
15:53 1018 30.06 847 25.01 26.8 80.2 14 -2.8 27 27.16 1.069
15:54 1018 30.06 847 25.01 26.7 80.1 13 -3.4 25.9 27.11 1.067
15:55 1018 30.06 847 25.01 26.7 80.1 14 -2.3 27.8 27.09 1.067
15:56 1018 30.06 847 25.01 26.7 80.1 14 -2.5 27.5 27.1 1.067
15:57 1018 30.06 847 25.01 26.8 80.2 14 -2.5 27.4 27.16 1.069
15:58 1018 30.06 847 25.01 26.8 80.3 15 -2 28.3 27.21 1.071
15:59 1018 30.06 847 25.01 26.9 80.3 13 -3.1 26.4 27.28 1.074
16:00 1018 30.06 847 25.01 26.8 80.3 14 -2.2 28.1 27.23 1.072
16:01 1018 30.06 847 25.01 26.8 80.3 15 -1.9 28.5 27.17 1.07
16:02 1018 30.06 847 25.01 26.8 80.2 16 -1.2 29.8 27.16 1.069
16:03 1018 30.06 847 25.01 26.8 80.2 14 -2.9 26.9 27.16 1.069
16:04 1018 30.06 847 25.01 26.7 80.1 13 -3.2 26.2 27.15 1.069
16:05 1018 30.06 847 25.01 26.7 80.1 15 -1.4 29.4 27.1 1.067
16:06 1018 30.06 847 25.01 26.8 80.2 13 -3.5 25.7 27.17 1.07
16:07 1018 30.06 847 25.01 26.8 80.2 13 -3.5 25.8 27.16 1.069
16:08 1018 30.06 847 25.01 26.8 80.2 14 -2.6 27.3 27.11 1.067
16:09 1018 30.06 847 25.01 26.7 80.1 14 -2.8 27 27.13 1.068
16:10 1018 30.06 847 25.01 26.7 80.1 12 -4.4 24.2 27.07 1.066
16:11 1018 30.06 847 25.01 26.7 80.1 14 -2.4 27.7 27.12 1.068
16:12 1018 30.06 847 25.01 26.7 80.1 15 -2.2 28.1 27.12 1.068
16:13 1018 30.06 847 25.01 26.7 80.1 16 -0.6 31 27.11 1.067
16:14 1018 30.06 847 25.01 26.7 80 14 -2.4 27.7 27.12 1.068
16:15 1018 30.06 847 25.01 26.8 80.2 14 -2.3 27.8 27.13 1.068
16:16 1018 30.06 847 25.01 26.8 80.2 14 -2.8 26.9 27.14 1.069
16:17 1018 30.06 847 25.01 26.7 80.1 14 -3.1 26.4 27.16 1.069
16:18 1018 30.06 847 25.01 26.7 80.1 13 -3.3 26.1 27.14 1.069
16:19 1018 30.06 847 25.01 26.8 80.2 13 -3.3 26 27.17 1.07
16:20 1017 30.03 847 25.01 26.8 80.2 15 -2.1 28.2 27.14 1.069
16:21 1017 30.03 847 25.01 26.8 80.3 14 -2.4 27.7 27.18 1.07
16:22 1017 30.03 847 25.01 26.9 80.3 14 -2.7 27.1 27.23 1.072
16:23 1017 30.03 847 25.01 26.9 80.4 15 -1.9 28.5 27.25 1.073
16:24 1017 30.03 847 25.01 26.9 80.4 15 -1.8 28.8 27.29 1.074
16:25 1017 30.03 847 25.01 26.9 80.4 14 -2.7 27.1 27.27 1.074
16:26 1017 30.03 847 25.01 26.8 80.2 13 -3.3 26 27.23 1.072
16:27 1017 30.03 847 25.01 26.7 80.1 14 -2.9 26.7 27.13 1.068
16:28 1017 30.03 847 25.01 26.7 80.1 13 -3.9 25.1 27.11 1.067
16:29 1017 30.03 847 25.01 26.8 80.2 14 -3.1 26.5 27.11 1.067
16:30 1017 30.03 847 25.01 26.7 80.1 15 -2.1 28.3 27.14 1.069
16:31 1017 30.03 847 25.01 26.7 80.1 14 -2.8 26.9 27.17 1.07
16:32 1017 30.03 847 25.01 26.8 80.2 14 -2.5 27.6 27.16 1.069
16:33 1017 30.03 847 25.01 26.7 80.1 14 -2.6 27.4 27.13 1.068
16:34 1017 30.03 847 25.01 26.8 80.2 15 -2.2 28.1 27.15 1.069
16:35 1017 30.03 847 25.01 26.8 80.3 14 -2.2 28 27.26 1.073
16:36 1017 30.03 847 25.01 26.9 80.3 15 -1.9 28.6 27.21 1.071
16:37 1017 30.03 847 25.01 26.9 80.4 15 -2 28.4 27.26 1.073
16:38 1017 30.03 846 24.98 26.9 80.5 14 -3 26.7 27.32 1.076
16:39 1017 30.03 846 24.98 27 80.6 15 -1.2 29.8 27.39 1.078
16:40 1017 30.03 846 24.98 27 80.6 14 -2.8 26.9 27.37 1.078
16:41 1017 30.03 846 24.98 27 80.6 14 -2.3 27.8 27.33 1.076
16:42 1017 30.03 846 24.98 26.9 80.4 14 -2.6 27.4 27.25 1.073
16:43 1017 30.03 846 24.98 26.9 80.4 14 -2.8 27 27.22 1.072
16:44 1017 30.03 846 24.98 26.9 80.4 13 -3.1 26.4 27.26 1.073
16:45 1017 30.03 846 24.98 26.9 80.3 14 -2.2 28.1 27.24 1.072
16:46 1017 30.03 846 24.98 26.8 80.3 14 -2.5 27.6 27.22 1.072
16:47 1017 30.03 846 24.98 26.8 80.2 14 -3 26.7 27.22 1.072
16:48 1017 30.03 846 24.98 26.9 80.4 14 -3 26.6 27.25 1.073
16:49 1017 30.03 846 24.98 26.9 80.4 14 -2.4 27.7 27.25 1.073
16:50 1017 30.03 846 24.98 26.8 80.3 14 -3 26.7 27.24 1.072
16:51 1017 30.03 846 24.98 26.8 80.2 16 -0.5 31 27.19 1.07
16:52 1017 30.03 846 24.98 26.8 80.2 14 -2.2 28 27.16 1.069
16:53 1017 30.03 846 24.98 26.8 80.2 15 -1.3 29.6 27.17 1.07
16:54 1017 30.03 846 24.98 26.8 80.2 15 -2.2 28.1 27.13 1.068
16:55 1017 30.03 846 24.98 26.8 80.2 16 -0.7 30.8 27.16 1.069
16:56 1017 30.03 847 25.01 26.8 80.2 16 -1 30.2 27.19 1.07
16:57 1017 30.03 846 24.98 26.8 80.3 15 -2.1 28.2 27.2 1.071
16:58 1017 30.03 846 24.98 26.9 80.4 14 -2.8 26.9 27.24 1.072
16:59 1017 30.03 846 24.98 26.9 80.4 16 -1.1 29.9 27.27 1.074
17:00 1017 30.03 846 24.98 26.9 80.5 13 -3.2 26.3 27.29 1.074
17:01 1017 30.03 846 24.98 27 80.6 14 -2.5 27.6 27.35 1.077
17:02 1017 30.03 846 24.98 27.1 80.8 14 -2 28.4 27.44 1.08
17:03 1017 30.03 846 24.98 27.1 80.8 14 -2.1 28.2 27.48 1.082
17:04 1017 30.03 846 24.98 27 80.7 14 -2.6 27.3 27.41 1.079
17:05 1017 30.03 846 24.98 27 80.5 14 -2.8 27 27.32 1.076
17:06 1017 30.03 846 24.98 26.9 80.4 14 -2.6 27.4 27.26 1.073
17:07 1017 30.03 846 24.98 26.9 80.3 14 -2.7 27.1 27.16 1.069
17:08 1017 30.03 846 24.98 26.8 80.2 14 -2.3 27.9 27.11 1.067
17:09 1017 30.03 846 24.98 26.7 80 14 -2.7 27.1 27.08 1.066
17:10 1017 30.03 846 24.98 26.7 80 14 -3 26.7 27.02 1.064
17:11 1017 30.03 846 24.98 26.6 79.9 14 -2.3 27.8 26.99 1.063
17:12 1017 30.03 846 24.98 26.7 80 13 -3.6 25.6 26.97 1.062
17:13 1017 30.03 846 24.98 26.7 80 14 -3.2 26.3 27.01 1.063
17:14 1017 30.03 846 24.98 26.7 80 13 -3.8 25.1 27 1.063
17:15 1017 30.03 846 24.98 26.6 79.9 17 -0 32 27 1.063
17:16 1017 30.03 846 24.98 26.6 79.9 13 -3.6 25.5 26.93 1.06
17:17 1017 30.03 846 24.98 26.6 79.8 13 -3.5 25.7 26.94 1.061
17:18 1017 30.03 846 24.98 26.6 79.9 14 -3.2 26.2 26.94 1.061
17:19 1017 30.03 846 24.98 26.6 79.8 13 -3.8 25.2 26.94 1.061
17:20 1017 30.03 846 24.98 26.6 79.9 14 -2.6 27.3 26.97 1.062
17:21 1017 30.03 846 24.98 26.6 79.9 14 -2.9 26.8 26.92 1.06
17:22 1017 30.03 846 24.98 26.5 79.8 14 -3.1 26.4 26.9 1.059
17:23 1017 30.03 846 24.98 26.5 79.8 13 -3.5 25.7 26.9 1.059
17:24 1017 30.03 846 24.98 26.6 79.9 14 -2.4 27.8 26.93 1.06
17:25 1017 30.03 846 24.98 26.6 79.9 14 -2.4 27.7 26.98 1.062
17:26 1017 30.03 846 24.98 26.6 79.8 15 -2.1 28.1 26.95 1.061
17:27 1017 30.03 846 24.98 26.6 79.8 16 -1.3 29.6 26.93 1.06
17:28 1017 30.03 846 24.98 26.5 79.8 15 -1.8 28.8 26.93 1.06
17:29 1017 30.03 846 24.98 26.5 79.7 14 -2.8 26.9 26.85 1.057
17:30 1017 30.03 846 24.98 26.5 79.6 16 -1.3 29.6 26.83 1.056
17:31 1017 30.03 846 24.98 26.4 79.5 15 -2.1 28.3 26.79 1.055
17:32 1017 30.03 846 24.98 26.3 79.4 15 -2.4 27.6 26.72 1.052
17:33 1017 30.03 846 24.98 26.3 79.4 16 -0.8 30.5 26.71 1.052
17:34 1017 30.03 846 24.98 26.3 79.3 14 -2.7 27.2 26.67 1.05
17:35 1017 30.03 846 24.98 26.2 79.2 18 0.2 32.3 26.61 1.048
17:36 1017 30.03 846 24.98 26.1 79 15 -2.6 27.4 26.53 1.044
17:37 1017 30.03 846 24.98 26.2 79.1 16 -1.3 29.7 26.52 1.044
17:38 1017 30.03 846 24.98 26.1 79 15 -2.6 27.3 26.49 1.043
17:39 1017 30.03 846 24.98 26.1 79 16 -1.3 29.7 26.47 1.042
17:40 1017 30.03 846 24.98 26 78.8 17 -0.5 31 26.35 1.037
17:41 1017 30.03 846 24.98 25.9 78.7 15 -2.8 27 26.27 1.034
17:42 1017 30.03 846 24.98 26 78.7 15 -2.2 28 26.32 1.036
17:43 1017 30.03 846 24.98 25.9 78.7 16 -1.6 29.1 26.32 1.036
17:44 1017 30.03 846 24.98 25.9 78.6 15 -2.9 26.9 26.26 1.034
17:45 1017 30.03 846 24.98 25.8 78.5 14 -3.4 25.9 26.21 1.032
17:46 1017 30.03 846 24.98 25.8 78.5 16 -2 28.4 26.19 1.031
17:47 1017 30.03 846 24.98 25.8 78.4 14 -3 26.6 26.13 1.029
17:48 1017 30.03 846 24.98 25.8 78.4 14 -3.5 25.8 26.14 1.029
17:49 1017 30.03 846 24.98 25.8 78.4 15 -2.6 27.4 26.14 1.029
17:50 1017 30.03 846 24.98 25.8 78.4 16 -2 28.4 26.12 1.028
17:51 1017 30.03 846 24.98 25.7 78.3 14 -3.1 26.3 26.13 1.029
17:52 1017 30.03 846 24.98 25.7 78.3 16 -1.9 28.6 26.14 1.029
17:53 1017 30.03 846 24.98 25.7 78.3 14 -3.4 26 26.1 1.028
17:54 1017 30.03 846 24.98 25.7 78.2 14 -3.1 26.4 26.06 1.026
17:55 1017 30.03 846 24.98 25.7 78.3 16 -2 28.4 26.13 1.029
17:56 1017 30.03 846 24.98 25.8 78.4 14 -3.1 26.4 26.1 1.028
17:57 1017 30.03 846 24.98 25.8 78.4 15 -2.2 28 26.13 1.029
17:58 1017 30.03 846 24.98 25.7 78.2 16 -1.7 29 26.09 1.027
17:59 1017 30.03 846 24.98 25.6 78 17 -1.3 29.6 25.96 1.022
18:00 1017 30.03 846 24.98 25.5 77.8 15 -2.6 27.4 25.87 1.019
18:01 1017 30.03 846 24.98 25.5 77.9 15 -2.6 27.2 25.88 1.019
18:02 1017 30.03 846 24.98 25.5 77.9 16 -2.3 27.9 25.88 1.019
18:03 1017 30.03 846 24.98 25.5 77.8 14 -3.6 25.5 25.85 1.018
18:04 1017 30.03 846 24.98 25.4 77.7 16 -2.3 27.8 25.76 1.014
18:05 1017 30.03 846 24.98 25.3 77.6 15 -2.7 27.1 25.68 1.011
18:06 1017 30.03 846 24.98 25.3 77.5 15 -2.8 26.9 25.6 1.008
18:07 1017 30.03 846 24.98 25.2 77.4 15 -3.2 26.3 25.59 1.007
18:08 1017 30.03 846 24.98 25.3 77.5 15 -2.6 27.3 25.61 1.008
18:09 1017 30.03 846 24.98 25.2 77.4 16 -1.8 28.7 25.58 1.007
18:10 1017 30.03 846 24.98 25.1 77.2 16 -2.1 28.1 25.52 1.005
18:11 1017 30.03 846 24.98 25.1 77.2 15 -3.3 26.1 25.44 1.002
18:12 1017 30.03 846 24.98 25 77.1 17 -1.8 28.8 25.44 1.002
18:13 1017 30.03 846 24.98 25 77 16 -2.5 27.4 25.4 1
18:14 1017 30.03 846 24.98 25 77 15 -3.4 25.8 25.36 0.998
18:15 1017 30.03 846 24.98 25.1 77.1 14 -3.6 25.4 25.41 1
18:16 1017 30.03 846 24.98 25 77 16 -2 28.3 25.41 1
18:17 1017 30.03 846 24.98 24.9 76.8 16 -2.4 27.7 25.27 0.995
18:18 1017 30.03 846 24.98 24.8 76.6 18 -0.8 30.5 25.17 0.991
18:19 1017 30.03 846 24.98 24.6 76.3 17 -1.7 28.9 24.97 0.983
18:20 1017 30.03 846 24.98 24.5 76.1 16 -2.7 27.2 24.86 0.979
18:21 1017 30.03 846 24.98 24.5 76.1 15 -3.8 25.2 24.86 0.979
18:22 1017 30.03 846 24.98 24.6 76.3 17 -2.2 28 24.96 0.983
18:23 1017 30.03 846 24.98 24.5 76.2 17 -2.2 28 24.88 0.98
18:24 1017 30.03 846 24.98 24.5 76.1 16 -2.8 27 24.83 0.978
18:25 1017 30.03 846 24.98 24.5 76.1 17 -2 28.3 24.82 0.977
18:26 1017 30.03 846 24.98 24.4 75.9 16 -3 26.6 24.71 0.973
18:27 1017 30.03 846 24.98 24.4 75.9 16 -2.8 26.9 24.76 0.975
18:28 1017 30.03 846 24.98 24.3 75.8 17 -2 28.4 24.71 0.973
18:29 1017 30.03 846 24.98 24.2 75.5 17 -1.8 28.7 24.54 0.966
18:30 1017 30.03 846 24.98 24 75.1 18 -1.8 28.7 24.34 0.958
18:31 1017 30.03 846 24.98 23.8 74.8 17 -2.5 27.5 24.14 0.95
18:32 1017 30.03 846 24.98 23.8 74.9 14 -4.7 23.6 24.16 0.951
18:33 1017 30.03 846 24.98 24 75.1 14 -4.6 23.8 24.32 0.957
18:34 1017 30.03 846 24.98 24.1 75.4 15 -4.2 24.5 24.43 0.962
18:35 1017 30.03 846 24.98 24.1 75.3 16 -3.3 26 24.38 0.96
18:36 1017 30.03 846 24.98 23.9 75 17 -2.7 27.2 24.3 0.957
18:37 1017 30.03 846 24.98 23.7 74.7 16 -3.6 25.5 24.05 0.947
18:38 1017 30.03 846 24.98 23.7 74.6 16 -3.6 25.6 23.96 0.943
18:39 1017 30.03 846 24.98 23.6 74.5 15 -4.1 24.7 23.95 0.943
18:40 1017 30.03 846 24.98 23.6 74.5 15 -4.2 24.5 23.94 0.943
18:41 1017 30.03 846 24.98 23.6 74.5 16 -3.6 25.5 23.91 0.941
18:42 1017 30.03 846 24.98 23.5 74.2 16 -3.4 25.9 23.79 0.937
18:43 1017 30.03 846 24.98 23.4 74 16 -3.9 25 23.7 0.933
18:44 1017 30.03 846 24.98 23.4 74 16 -3.7 25.4 23.68 0.932
18:45 1017 30.03 846 24.98 23.3 74 16 -3.7 25.4 23.64 0.931
18:46 1017 30.03 846 24.98 23.2 73.8 15 -4.8 23.3 23.55 0.927
18:47 1017 30.03 846 24.98 23.2 73.8 16 -3.7 25.4 23.55 0.927
18:48 1017 30.03 846 24.98 23.1 73.6 16 -3.7 25.3 23.43 0.922
18:49 1017 30.03 846 24.98 23 73.4 16 -4.3 24.2 23.35 0.919
18:50 1017 30.03 846 24.98 23 73.4 16 -3.7 25.4 23.3 0.917
18:51 1017 30.03 846 24.98 22.9 73.3 17 -3.4 25.9 23.27 0.916
18:52 1017 30.03 846 24.98 22.8 73.1 17 -3.7 25.3 23.15 0.911
18:53 1017 30.03 847 25.01 22.8 73 17 -3.2 26.3 23.08 0.909
18:54 1017 30.03 847 25.01 22.6 72.6 18 -3.1 26.4 22.91 0.902
18:55 1017 30.03 847 25.01 22.4 72.3 18 -3.1 26.4 22.71 0.894
18:56 1017 30.03 847 25.01 22.2 71.9 18 -3.1 26.5 22.49 0.885
18:57 1017 30.03 847 25.01 22 71.6 18 -3.1 26.4 22.32 0.879
18:58 1017 30.03 847 25.01 21.8 71.3 19 -2.6 27.3 22.17 0.873
18:59 1017 30.03 847 25.01 21.6 70.9 19 -2.7 27.2 21.96 0.865
19:00 1017 30.03 847 25.01 21.4 70.6 19 -3.1 26.5 21.76 0.857
19:01 1017 30.03 847 25.01 21.3 70.3 19 -3 26.5 21.65 0.852
19:02 1017 30.03 847 25.01 21.3 70.3 20 -2.6 27.3 21.57 0.849
19:03 1017 30.03 847 25.01 21.1 69.9 20 -2.8 27 21.42 0.843
19:04 1017 30.03 847 25.01 20.9 69.7 20 -2.9 26.7 21.29 0.838
19:05 1017 30.03 847 25.01 20.8 69.5 20 -2.8 26.9 21.21 0.835
19:06 1017 30.03 847 25.01 20.8 69.5 20 -3.1 26.4 21.15 0.833
19:07 1017 30.03 847 25.01 20.9 69.5 20 -2.9 26.7 21.2 0.835
19:08 1017 30.03 847 25.01 20.9 69.6 20 -2.7 27.2 21.24 0.836
19:09 1017 30.03 847 25.01 20.8 69.5 19 -3.3 26.1 21.16 0.833
19:10 1017 30.03 847 25.01 20.8 69.4 19 -3.2 26.2 21.13 0.832
19:11 1018 30.06 847 25.01 20.8 69.4 19 -3.7 25.4 21.15 0.833
19:12 1018 30.06 847 25.01 20.8 69.5 19 -3.3 26.1 21.17 0.833
19:13 1018 30.06 847 25.01 20.9 69.6 19 -3.6 25.6 21.24 0.836
19:14 1018 30.06 847 25.01 20.9 69.7 19 -3.4 25.8 21.26 0.837
19:15 1018 30.06 847 25.01 20.9 69.7 19 -3.1 26.4 21.23 0.836
19:16 1018 30.06 847 25.01 20.8 69.4 19 -3.2 26.2 21.17 0.833
19:17 1018 30.06 847 25.01 20.7 69.3 20 -2.8 26.9 21.07 0.83
19:18 1018 30.06 847 25.01 20.6 69 20 -3.2 26.3 20.91 0.823
19:19 1018 30.06 847 25.01 20.6 69 19 -3.7 25.4 20.87 0.822
19:20 1018 30.06 847 25.01 20.7 69.3 19 -3.4 25.9 21.08 0.83
19:21 1018 30.06 847 25.01 20.7 69.3 20 -2.8 26.9 21.08 0.83
19:22 1018 30.06 847 25.01 20.6 69.1 20 -3 26.6 20.98 0.826
19:23 1018 30.06 847 25.01 20.5 69 20 -3.2 26.3 20.92 0.824
19:24 1018 30.06 847 25.01 20.5 68.8 20 -3.3 26.1 20.82 0.82
19:25 1018 30.06 847 25.01 20.4 68.7 20 -3.1 26.4 20.71 0.815
19:26 1018 30.06 847 25.01 20.3 68.5 20 -2.9 26.7 20.66 0.813
19:27 1018 30.06 847 25.01 20.1 68.3 21 -2.9 26.8 20.48 0.806
19:28 1018 30.06 847 25.01 20 67.9 21 -2.8 27 20.33 0.8
19:29 1018 30.06 847 25.01 19.9 67.7 21 -2.9 26.8 20.17 0.794
19:30 1018 30.06 847 25.01 19.7 67.4 21 -3.1 26.5 20.04 0.789
19:31 1018 30.06 847 25.01 19.7 67.4 21 -3.3 26.1 19.99 0.787
19:32 1018 30.06 847 25.01 19.7 67.4 21 -2.8 26.9 20.04 0.789
19:33 1018 30.06 847 25.01 19.6 67.3 22 -2.7 27.2 19.93 0.785
19:34 1018 30.06 847 25.01 19.5 67 21 -3.2 26.3 19.81 0.78
19:35 1018 30.06 847 25.01 19.5 67.1 21 -3.1 26.4 19.85 0.781
19:36 1018 30.06 847 25.01 19.5 67.1 21 -3.2 26.2 19.84 0.781
19:37 1018 30.06 847 25.01 19.5 67.2 21 -3.2 26.2 19.89 0.783
19:38 1018 30.06 847 25.01 19.6 67.2 21 -2.9 26.7 19.9 0.783
19:39 1018 30.06 847 25.01 19.4 67 22 -3 26.6 19.78 0.779
19:40 1018 30.06 847 25.01 19.3 66.8 22 -3 26.6 19.7 0.776
19:41 1018 30.06 847 25.01 19.3 66.7 22 -3.1 26.5 19.66 0.774
19:42 1018 30.06 847 25.01 19.3 66.7 22 -3 26.6 19.58 0.771
19:43 1018 30.06 847 25.01 19.2 66.5 22 -3.1 26.5 19.55 0.77
19:44 1018 30.06 847 25.01 19.1 66.3 22 -3.1 26.5 19.39 0.763
19:45 1018 30.06 847 25.01 18.9 66.1 22 -3.2 26.3 19.32 0.761
19:46 1018 30.06 847 25.01 18.9 66 23 -2.8 27 19.24 0.757
19:47 1018 30.06 847 25.01 18.8 65.8 23 -2.7 27.1 19.12 0.753
19:48 1018 30.06 847 25.01 18.6 65.6 23 -2.8 26.9 18.98 0.747
19:49 1018 30.06 847 25.01 18.5 65.3 23 -2.6 27.3 18.89 0.744
19:50 1018 30.06 847 25.01 18.4 65.2 23 -2.7 27.2 18.76 0.739
19:51 1018 30.06 847 25.01 18.4 65 23 -2.9 26.8 18.71 0.737
19:52 1018 30.06 847 25.01 18.4 65.1 23 -2.7 27.1 18.73 0.737
19:53 1018 30.06 847 25.01 18.4 65.1 23 -2.8 27 18.76 0.739
19:54 1018 30.06 847 25.01 18.5 65.2 23 -3 26.6 18.81 0.741
19:55 1018 30.06 847 25.01 18.6 65.4 23 -2.9 26.8 18.93 0.745
19:56 1018 30.06 847 25.01 18.7 65.7 23 -2.8 27 19.05 0.75
19:57 1018 30.06 847 25.01 18.8 65.8 23 -2.9 26.8 19.1 0.752
19:58 1018 30.06 847 25.01 18.8 65.9 23 -2.5 27.4 19.1 0.752
19:59 1018 30.06 847 25.01 18.8 65.8 23 -2.8 27 19.13 0.753
20:00 1018 30.06 847 25.01 18.7 65.7 23 -2.6 27.3 19.09 0.752
20:01 1018 30.06 847 25.01 18.7 65.6 23 -2.9 26.8 19 0.748
20:02 1018 30.06 847 25.01 18.6 65.5 23 -2.7 27.1 18.95 0.746
20:03 1018 30.06 847 25.01 18.6 65.5 24 -2.4 27.7 18.97 0.747
20:04 1018 30.06 847 25.01 18.6 65.4 24 -2.5 27.5 18.9 0.744
20:05 1018 30.06 847 25.01 18.5 65.2 24 -2.5 27.5 18.8 0.74
20:06 1018 30.06 847 25.01 18.4 65.1 24 -2.7 27.2 18.79 0.74
20:07 1018 30.06 847 25.01 18.4 65 24 -2.4 27.6 18.7 0.736
20:08 1018 30.06 847 25.01 18.3 64.9 24 -2.5 27.5 18.65 0.734
20:09 1018 30.06 847 25.01 18.3 64.9 24 -2.8 27 18.66 0.735
20:10 1018 30.06 847 25.01 18.4 65 23 -2.7 27.1 18.72 0.737
20:11 1018 30.06 847 25.01 18.5 65.3 24 -2.5 27.5 18.83 0.741
20:12 1018 30.06 847 25.01 18.5 65.3 23 -2.8 27 18.83 0.741
20:13 1018 30.06 847 25.01 18.5 65.4 23 -2.6 27.3 18.84 0.742
20:14 1018 30.06 847 25.01 18.5 65.4 23 -2.7 27.1 18.87 0.743
20:15 1018 30.06 847 25.01 18.5 65.4 23 -2.7 27.2 18.87 0.743
20:16 1018 30.06 847 25.01 18.6 65.5 23 -2.6 27.3 18.89 0.744
20:17 1018 30.06 847 25.01 18.5 65.4 24 -2.5 27.5 18.88 0.743
20:18 1018 30.06 847 25.01 18.6 65.4 24 -2.5 27.5 18.88 0.743
20:19 1018 30.06 847 25.01 18.5 65.3 24 -2.6 27.4 18.85 0.742
20:20 1018 30.06 847 25.01 18.5 65.2 23 -2.7 27.2 18.84 0.742
20:21 1018 30.06 847 25.01 18.5 65.3 23 -2.9 26.8 18.86 0.743
20:22 1018 30.06 847 25.01 18.6 65.4 23 -2.8 27 18.95 0.746
20:23 1018 30.06 847 25.01 18.6 65.6 23 -2.8 27 18.98 0.747
20:24 1018 30.06 847 25.01 18.7 65.6 23 -2.6 27.3 19.01 0.748
20:25 1018 30.06 847 25.01 18.6 65.6 23 -2.7 27.1 18.97 0.747
20:26 1018 30.06 847 25.01 18.6 65.5 23 -2.5 27.4 18.96 0.746
20:27 1018 30.06 847 25.01 18.6 65.5 24 -2.4 27.8 18.92 0.745
20:28 1018 30.06 847 25.01 18.5 65.2 24 -2.6 27.3 18.84 0.742
20:29 1018 30.06 847 25.01 18.4 65.2 23 -2.9 26.8 18.76 0.739
20:30 1018 30.06 847 25.01 18.4 65.2 23 -2.7 27.2 18.83 0.741
20:31 1018 30.06 847 25.01 18.5 65.2 24 -2.6 27.3 18.81 0.741
20:32 1018 30.06 847 25.01 18.4 65.1 24 -2.6 27.4 18.75 0.738
20:33 1018 30.06 847 25.01 18.3 65 24 -2.4 27.6 18.67 0.735
20:34 1018 30.06 847 25.01 18.3 64.9 25 -2.2 28.1 18.61 0.733
20:35 1018 30.06 847 25.01 18.1 64.6 26 -1.7 28.9 18.47 0.727
20:36 1018 30.06 847 25.01 17.9 64.2 26 -1.9 28.5 18.27 0.719
20:37 1018 30.06 847 25.01 17.7 63.8 26 -1.9 28.5 18.05 0.711
20:38 1018 30.06 847 25.01 17.5 63.5 26 -2.3 27.9 17.87 0.704
20:39 1018 30.06 847 25.01 17.4 63.3 27 -1.9 28.6 17.74 0.698
20:40 1018 30.06 847 25.01 17.2 63 26 -2.1 28.3 17.61 0.693
20:41 1018 30.06 847 25.01 17.1 62.8 27 -2 28.5 17.49 0.689
20:42 1018 30.06 847 25.01 17 62.7 27 -2 28.4 17.37 0.684
20:43 1018 30.06 847 25.01 17 62.5 27 -2.2 28 17.32 0.682
20:44 1018 30.06 847 25.01 16.9 62.5 27 -2.3 27.9 17.29 0.681
20:45 1018 30.06 847 25.01 16.9 62.5 26 -2.3 27.8 17.26 0.68
20:46 1018 30.06 847 25.01 17 62.5 26 -2.3 27.8 17.28 0.68
20:47 1018 30.06 847 25.01 16.9 62.4 27 -2.3 27.8 17.25 0.679
20:48 1018 30.06 847 25.01 16.9 62.4 26 -2.5 27.6 17.24 0.679
20:49 1018 30.06 847 25.01 16.9 62.4 27 -2.3 27.9 17.25 0.679
20:50 1018 30.06 847 25.01 16.9 62.3 27 -2.4 27.7 17.22 0.678
20:51 1018 30.06 847 25.01 16.8 62.2 27 -2.3 27.9 17.09 0.673
20:52 1018 30.06 847 25.01 16.7 62.1 27 -2.4 27.6 17.06 0.672
20:53 1018 30.06 847 25.01 16.7 62 27 -2.4 27.8 17.06 0.672
20:54 1018 30.06 847 25.01 16.6 62 27 -2.4 27.7 16.98 0.669
20:55 1018 30.06 847 25.01 16.7 62 27 -2.4 27.7 17.01 0.67
20:56 1018 30.06 847 25.01 16.7 62 27 -2.4 27.7 17.02 0.67
20:57 1018 30.06 847 25.01 16.7 62 27 -2.3 27.9 16.98 0.669
20:58 1018 30.06 847 25.01 16.7 62 27 -2.5 27.5 16.98 0.669
20:59 1018 30.06 847 25.01 16.7 62 27 -2.4 27.7 16.99 0.669
21:00 1018 30.06 847 25.01 16.7 62 27 -2.4 27.6 17 0.669
21:01 1018 30.06 848 25.04 16.6 62 27 -2.4 27.6 16.99 0.669
21:02 1018 30.06 847 25.01 16.7 62 26 -2.7 27.2 17.03 0.67
21:03 1018 30.06 848 25.04 16.7 62.1 27 -2.4 27.7 17.11 0.674
21:04 1018 30.06 847 25.01 16.8 62.3 27 -2.4 27.7 17.15 0.675
21:05 1018 30.06 847 25.01 16.8 62.2 27 -2.4 27.7 17.13 0.674
21:06 1018 30.06 847 25.01 16.8 62.2 27 -2.3 27.9 17.15 0.675
21:07 1018 30.06 847 25.01 16.8 62.2 27 -2.4 27.6 17.07 0.672
21:08 1018 30.06 847 25.01 16.7 62 27 -2.3 27.9 17.07 0.672
21:09 1018 30.06 847 25.01 16.6 61.9 27 -2.3 27.8 16.98 0.669
21:10 1018 30.06 847 25.01 16.5 61.7 28 -2.1 28.2 16.86 0.664
21:11 1018 30.06 847 25.01 16.4 61.5 28 -2.2 28 16.71 0.658
21:12 1018 30.06 847 25.01 16.2 61.1 28 -2.3 27.9 16.5 0.65
21:13 1018 30.06 847 25.01 16.1 60.9 28 -2.4 27.8 16.37 0.644
21:14 1018 30.06 847 25.01 15.9 60.7 28 -2.6 27.3 16.24 0.639
21:15 1018 30.06 847 25.01 15.9 60.6 28 -2.5 27.4 16.21 0.638
21:16 1018 30.06 847 25.01 15.9 60.5 28 -2.5 27.6 16.19 0.637
21:17 1018 30.06 848 25.04 15.8 60.4 29 -2.4 27.7 16.17 0.637
21:18 1018 30.06 848 25.04 15.7 60.2 30 -2 28.5 16.08 0.633
21:19 1018 30.06 848 25.04 15.3 59.6 30 -2 28.5 15.85 0.624
21:20 1018 30.06 848 25.04 15.1 59.2 30 -2 28.3 15.54 0.612
21:21 1018 30.06 848 25.04 14.9 58.9 32 -1.6 29.1 15.3 0.602
21:22 1018 30.06 848 25.04 14.7 58.5 32 -1.7 28.9 15.04 0.592
21:23 1018 30.06 848 25.04 14.4 58 33 -1.7 29 14.79 0.582
21:24 1018 30.06 848 25.04 14.1 57.3 36 -0.8 30.6 14.4 0.567
21:25 1018 30.06 848 25.04 13.5 56.3 37 -1 30.3 13.83 0.544
21:26 1018 30.06 848 25.04 13.2 55.8 36 -1.5 29.3 13.5 0.531
21:27 1018 30.06 848 25.04 13.3 55.9 36 -1.6 29.2 13.51 0.532
21:28 1018 30.06 848 25.04 13.3 55.9 34 -2.2 28 13.52 0.532
21:29 1018 30.06 848 25.04 13.7 56.6 32 -2.8 27 13.89 0.547
21:30 1018 30.06 848 25.04 14.1 57.5 30 -3.1 26.4 14.34 0.565
21:31 1018 30.06 848 25.04 14.5 58.1 29 -3.1 26.5 14.68 0.578
21:32 1018 30.06 848 25.04 14.8 58.7 30 -2.7 27.2 14.96 0.589
21:33 1018 30.06 848 25.04 14.9 58.8 30 -2.6 27.3 15.05 0.593
21:34 1018 30.06 848 25.04 14.9 58.9 29 -3 26.7 15.07 0.593
21:35 1018 30.06 848 25.04 14.9 58.8 29 -2.8 27 15.08 0.594
21:36 1018 30.06 848 25.04 14.8 58.6 29 -3 26.7 14.96 0.589
21:37 1018 30.06 848 25.04 14.6 58.2 30 -2.7 27.1 14.86 0.585
21:38 1018 30.06 848 25.04 14.6 58.3 30 -2.6 27.3 14.86 0.585
21:39 1018 30.06 848 25.04 14.7 58.4 30 -2.6 27.3 14.92 0.587
21:40 1018 30.06 848 25.04 14.8 58.7 30 -2.6 27.3 15.05 0.593
21:41 1018 30.06 848 25.04 14.9 58.9 29 -2.7 27.1 15.18 0.598
21:42 1018 30.06 848 25.04 15.1 59.1 29 -2.8 27 15.35 0.604
21:43 1018 30.06 848 25.04 15.2 59.3 29 -2.7 27.1 15.41 0.607
21:44 1018 30.06 848 25.04 15.2 59.4 29 -2.6 27.4 15.56 0.613
21:45 1018 30.06 848 25.04 15.3 59.5 29 -2.5 27.6 15.6 0.614
21:46 1018 30.06 848 25.04 15.3 59.5 29 -2.5 27.5 15.6 0.614
21:47 1018 30.06 848 25.04 15.3 59.5 29 -2.4 27.7 15.61 0.615
21:48 1018 30.06 848 25.04 15.2 59.4 30 -2.3 27.8 15.57 0.613
21:49 1018 30.06 848 25.04 15.1 59.2 30 -2.2 28 15.45 0.608
21:50 1018 30.06 848 25.04 15 58.9 30 -2.2 28 15.33 0.604
21:51 1018 30.06 848 25.04 14.9 58.8 31 -2.1 28.2 15.23 0.6
21:52 1018 30.06 848 25.04 14.8 58.6 31 -2 28.3 15.12 0.595
21:53 1018 30.06 848 25.04 14.7 58.4 32 -1.9 28.6 15.06 0.593
21:54 1018 30.06 848 25.04 14.5 58.1 34 -1 30.2 14.86 0.585
21:55 1018 30.06 848 25.04 13.6 56.5 36 -1 30.2 14.01 0.552
21:56 1018 30.06 848 25.04 12.7 54.9 39 -0.9 30.3 13.19 0.519
21:57 1018 30.06 848 25.04 11.9 53.4 42 -0.4 31.2 12.49 0.492
21:58 1018 30.06 848 25.04 11.1 51.9 44 -0.6 31 11.63 0.458
21:59 1018 30.06 848 25.04 10.4 50.8 46 -0.5 31.1 10.98 0.432
22:00 1018 30.06 848 25.04 9.8 49.6 48 -0.8 30.6 10.41 0.41
22:01 1019 30.09 848 25.04 9.3 48.8 48 -1.1 30 9.93 0.391
22:02 1019 30.09 848 25.04 9.3 48.7 46 -1.7 28.9 9.79 0.385
22:03 1019 30.09 848 25.04 9.6 49.3 45 -1.8 28.8 10.04 0.395
22:04 1018 30.06 848 25.04 9.9 49.8 43 -2.1 28.2 10.23 0.403
22:05 1019 30.09 848 25.04 10.2 50.3 43 -1.7 28.9 10.47 0.412
22:06 1019 30.09 848 25.04 10.2 50.4 43 -1.9 28.6 10.45 0.411
22:07 1018 30.06 848 25.04 10.2 50.4 45 -1.3 29.7 10.38 0.409
22:08 1018 30.06 848 25.04 9.8 49.7 46 -1.1 30 10.04 0.395
22:09 1018 30.06 848 25.04 9.7 49.4 46 -1.4 29.4 9.87 0.389
22:10 1018 30.06 848 25.04 9.8 49.7 43 -2.2 28.1 10 0.394
22:11 1018 30.06 848 25.04 10.2 50.4 43 -1.8 28.7 10.29 0.405
22:12 1018 30.06 848 25.04 10.3 50.5 39 -3 26.6 10.47 0.412
22:13 1018 30.06 848 25.04 11.3 52.3 36 -3.1 26.4 11.31 0.445
22:14 1018 30.06 848 25.04 12 53.6 37 -2.1 28.2 11.97 0.471
22:15 1018 30.06 848 25.04 11.9 53.5 35 -2.9 26.8 11.99 0.472
22:16 1018 30.06 848 25.04 12.2 53.9 36 -2.6 27.4 12.19 0.48
22:17 1018 30.06 848 25.04 12.3 54.1 37 -2.1 28.2 12.33 0.485
22:18 1018 30.06 848 25.04 12.1 53.8 37 -2.2 28 12.27 0.483
22:19 1018 30.06 848 25.04 11.9 53.4 36 -2.7 27.1 12.12 0.477
22:20 1018 30.06 847 25.01 12 53.6 37 -2.1 28.2 12.12 0.477
22:21 1018 30.06 848 25.04 11.8 53.3 38 -1.8 28.7 12 0.472
22:22 1018 30.06 848 25.04 11.6 52.8 39 -2 28.4 11.79 0.464
22:23 1018 30.06 848 25.04 11.4 52.5 39 -2 28.4 11.65 0.459
22:24 1018 30.06 848 25.04 11.3 52.3 39 -2.1 28.2 11.55 0.455
22:25 1018 30.06 848 25.04 11.3 52.3 41 -1.6 29.1 11.49 0.452
22:26 1018 30.06 848 25.04 11.1 52 39 -2.3 27.9 11.4 0.449
22:27 1018 30.06 848 25.04 11.3 52.3 41 -1.6 29.2 11.47 0.452
22:28 1018 30.06 848 25.04 11.2 52.2 38 -2.5 27.6 11.45 0.451
22:29 1018 30.06 848 25.04 11.4 52.5 37 -2.8 27 11.66 0.459
22:30 1018 30.06 848 25.04 12 53.6 34 -3.3 26.1 12.26 0.483
22:31 1018 30.06 848 25.04 12.8 55 33 -3.2 26.2 13.1 0.516
22:32 1018 30.06 848 25.04 13.5 56.4 31 -3.2 26.3 13.84 0.545
22:33 1018 30.06 848 25.04 14.3 57.7 30 -3.1 26.4 14.64 0.576
22:34 1019 30.09 848 25.04 14.9 58.7 29 -3 26.5 15.24 0.6
22:35 1019 30.09 848 25.04 15.3 59.6 28 -3.1 26.4 15.68 0.617
22:36 1019 30.09 848 25.04 15.7 60.2 28 -2.9 26.8 16.04 0.631
22:37 1019 30.09 848 25.04 15.9 60.6 27 -2.8 26.9 16.23 0.639
22:38 1019 30.09 848 25.04 16 60.7 27 -2.8 27 16.33 0.643
22:39 1019 30.09 848 25.04 16.1 61 27 -3 26.5 16.46 0.648
22:40 1019 30.09 848 25.04 16.4 61.4 26 -3.1 26.4 16.72 0.658
22:41 1019 30.09 848 25.04 16.6 61.8 26 -2.7 27.1 16.93 0.667
22:42 1019 30.09 848 25.04 16.6 61.9 26 -2.9 26.8 16.94 0.667
22:43 1019 30.09 848 25.04 16.6 61.8 26 -2.8 26.9 16.86 0.664
22:44 1019 30.09 848 25.04 16.4 61.6 26 -2.8 26.9 16.76 0.66
22:45 1019 30.09 848 25.04 16.3 61.4 26 -3.4 25.9 16.7 0.657
22:46 1019 30.09 848 25.04 16.3 61.4 26 -3.2 26.2 16.67 0.656
22:47 1019 30.09 848 25.04 16.3 61.3 26 -3 26.6 16.65 0.656
22:48 1019 30.09 848 25.04 16.3 61.3 26 -3 26.6 16.6 0.654
22:49 1019 30.09 848 25.04 16.2 61.2 26 -3.4 25.8 16.59 0.653
22:50 1019 30.09 848 25.04 16.4 61.4 25 -3.5 25.6 16.72 0.658
22:51 1019 30.09 848 25.04 16.6 61.9 25 -3.2 26.2 16.93 0.667
22:52 1019 30.09 848 25.04 16.6 61.9 25 -3.3 26.1 16.97 0.668
22:53 1019 30.09 848 25.04 16.6 61.9 25 -3.1 26.3 16.97 0.668
22:54 1019 30.09 848 25.04 16.6 61.9 26 -3.1 26.4 16.92 0.666
22:55 1019 30.09 848 25.04 16.5 61.7 25 -3.2 26.2 16.92 0.666
22:56 1019 30.09 848 25.04 16.6 61.8 25 -3.3 26 16.92 0.666
22:57 1019 30.09 848 25.04 16.6 61.8 26 -3 26.6 16.93 0.667
22:58 1019 30.09 848 25.04 16.5 61.7 26 -3 26.7 16.87 0.664
22:59 1019 30.09 848 25.04 16.4 61.5 26 -3 26.7 16.75 0.659
23:00 1019 30.09 848 25.04 16.3 61.4 26 -3.1 26.4 16.65 0.656
23:01 1019 30.09 848 25.04 16.2 61.2 26 -3.2 26.2 16.63 0.655
23:02 1019 30.09 848 25.04 16.3 61.3 26 -3 26.6 16.58 0.653
23:03 1019 30.09 848 25.04 16.2 61.2 26 -3.2 26.3 16.59 0.653
23:04 1019 30.09 848 25.04 16.2 61.2 26 -3.2 26.2 16.62 0.654
23:05 1019 30.09 848 25.04 16.3 61.3 26 -3.2 26.2 16.66 0.656
23:06 1019 30.09 848 25.04 16.3 61.4 26 -3.2 26.2 16.7 0.657
23:07 1019 30.09 848 25.04 16.3 61.3 26 -3.1 26.4 16.67 0.656
23:08 1019 30.09 848 25.04 16.3 61.3 26 -3.3 26 16.7 0.657
23:09 1019 30.09 848 25.04 16.2 61.2 26 -3.2 26.3 16.61 0.654
23:10 1019 30.09 848 25.04 16.2 61.2 26 -3.2 26.3 16.55 0.652
23:11 1019 30.09 848 25.04 16.2 61.1 26 -3 26.6 16.53 0.651
23:12 1019 30.09 848 25.04 16.1 61 26 -3.1 26.5 16.46 0.648
23:13 1019 30.09 848 25.04 16.1 60.9 26 -3.1 26.4 16.41 0.646
23:14 1019 30.09 848 25.04 16 60.7 27 -3 26.5 16.35 0.644
23:15 1019 30.09 848 25.04 15.9 60.7 27 -3 26.7 16.28 0.641
23:16 1019 30.09 848 25.04 15.9 60.6 27 -2.9 26.8 16.27 0.641
23:17 1019 30.09 848 25.04 15.8 60.4 28 -2.7 27.1 16.17 0.637
23:18 1019 30.09 848 25.04 15.6 60 29 -2.1 28.2 16.02 0.631
23:19 1019 30.09 848 25.04 14.8 58.6 30 -2.4 27.6 15.32 0.603
23:20 1019 30.09 848 25.04 13.9 57 33 -1.9 28.5 14.4 0.567
23:21 1019 30.09 848 25.04 12.9 55.3 36 -1.6 29.2 13.39 0.527
23:22 1019 30.09 848 25.04 12 53.6 39 -1.5 29.3 12.48 0.491
23:23 1019 30.09 848 25.04 11.4 52.5 41 -1.5 29.3 11.84 0.466
23:24 1019 30.09 848 25.04 11.1 51.9 41 -1.7 28.9 11.47 0.452
23:25 1019 30.09 848 25.04 10.9 51.7 41 -1.7 29 11.33 0.446
23:26 1019 30.09 848 25.04 10.8 51.5 41 -1.9 28.6 11.18 0.44
23:27 1019 30.09 848 25.04 10.9 51.6 41 -1.9 28.5 11.24 0.443
23:28 1019 30.09 848 25.04 11 51.7 40 -1.9 28.6 11.31 0.445
23:29 1019 30.09 848 25.04 11.1 51.9 40 -2 28.5 11.39 0.448
23:30 1019 30.09 848 25.04 11.1 51.9 40 -1.8 28.7 11.42 0.45
23:31 1019 30.09 848 25.04 10.9 51.7 41 -1.7 29 11.31 0.445
23:32 1019 30.09 848 25.04 10.8 51.4 42 -1.6 29.1 11.11 0.437
23:33 1019 30.09 848 25.04 10.6 51.1 42 -1.6 29.1 10.97 0.432
23:34 1019 30.09 848 25.04 10.5 50.8 42 -1.8 28.8 10.85 0.427
23:35 1019 30.09 848 25.04 10.3 50.6 42 -2 28.5 10.71 0.422
23:36 1019 30.09 848 25.04 10.5 51 39 -2.9 26.8 10.88 0.428
23:37 1019 30.09 848 25.04 11.2 52.2 37 -3.1 26.5 11.44 0.45
23:38 1019 30.09 848 25.04 11.8 53.2 37 -2.4 27.7 12.02 0.473
23:39 1019 30.09 848 25.04 11.7 53.1 38 -2.3 27.9 12.09 0.476
23:40 1019 30.09 848 25.04 11.7 53 38 -2.2 28 12.02 0.473
23:41 1019 30.09 848 25.04 11.7 53 38 -2.1 28.2 12.02 0.473
23:42 1019 30.09 848 25.04 11.7 53.1 39 -1.8 28.7 12.01 0.473
23:43 1019 30.09 848 25.04 11.6 52.9 38 -2 28.4 11.94 0.47
23:44 1019 30.09 848 25.04 11.6 52.9 39 -1.9 28.6 11.93 0.47
23:45 1019 30.09 848 25.04 11.5 52.7 40 -1.7 29 11.83 0.466
23:46 1019 30.09 848 25.04 11.3 52.3 40 -1.6 29.1 11.62 0.457
23:47 1019 30.09 848 25.04 11.1 52 40 -1.9 28.6 11.46 0.451
23:48 1019 30.09 848 25.04 11 51.8 40 -1.9 28.6 11.4 0.449
23:49 1019 30.09 848 25.04 11 51.9 39 -2.4 27.7 11.4 0.449
23:50 1019 30.09 848 25.04 11.3 52.4 37 -2.7 27.2 11.61 0.457
23:51 1019 30.09 848 25.04 11.7 53.1 37 -2.4 27.7 11.97 0.471
23:52 1019 30.09 848 25.04 11.6 52.9 37 -2.6 27.3 12 0.472
23:53 1019 30.09 848 25.04 11.5 52.7 39 -2 28.4 11.88 0.468
23:54 1019 30.09 848 25.04 11.3 52.4 39 -2.2 28.1 11.69 0.46
23:55 1019 30.09 848 25.04 11.2 52.2 38 -2.4 27.8 11.61 0.457
23:56 1019 30.09 848 25.04 11.4 52.5 38 -2.5 27.5 11.7 0.461
23:57 1019 30.09 848 25.04 11.5 52.7 38 -2.3 27.9 11.8 0.465
23:58 1019 30.09 848 25.04 11.5 52.7 37 -2.6 27.3 11.77 0.463
23:59 1019 30.09 848 25.04 11.5 52.7 37 -2.7 27.2 11.81 0.465
24:00 1019 30.09 848 25.04 11.5 52.7 38 -2.4 27.6 11.89 0.468